<?xml version="1.0" encoding="UTF-8" standalone="no" ?>
<gpx xmlns="http://www.topografix.com/GPX/1/1" xmlns:xsi="http://www.w3.org/2001/XMLSchema-instance" xsi:schemaLocation="http://www.topografix.com/GPX/1/1 http://www.topografix.com/GPX/1/1/gpx.xsd" version="1.1" creator="VisuGPX - https://www.visugpx.com">
  <metadata>
    <name>77-denecourt 10</name>
    <desc><![CDATA[Départ au parking Maintenon,petite randonnée 6Km mais beaucoup de beaux rochers.]]></desc>
  </metadata>
  <trk>
    <name><![CDATA[Denecourt 10]]></name>
    <trkseg>
      <trkpt lat="48.39197" lon="2.70366">
        <ele>82.81</ele>
        <time>2017-10-06T07:24:38Z</time>
      </trkpt>
      <trkpt lat="48.39197" lon="2.70366">
        <ele>82.81</ele>
        <time>2017-10-06T07:24:39Z</time>
      </trkpt>
      <trkpt lat="48.39197" lon="2.70366">
        <ele>82.81</ele>
        <time>2017-10-06T07:24:40Z</time>
      </trkpt>
      <trkpt lat="48.39198" lon="2.70367">
        <ele>82.81</ele>
        <time>2017-10-06T07:24:59Z</time>
      </trkpt>
      <trkpt lat="48.39197" lon="2.70368">
        <ele>82.81</ele>
        <time>2017-10-06T07:25:22Z</time>
      </trkpt>
      <trkpt lat="48.39199" lon="2.70368">
        <ele>82.33</ele>
        <time>2017-10-06T07:25:33Z</time>
      </trkpt>
      <trkpt lat="48.39206" lon="2.70368">
        <ele>81.85</ele>
        <time>2017-10-06T07:25:40Z</time>
      </trkpt>
      <trkpt lat="48.39211" lon="2.70367">
        <ele>82.33</ele>
        <time>2017-10-06T07:25:45Z</time>
      </trkpt>
      <trkpt lat="48.39213" lon="2.70367">
        <ele>82.33</ele>
        <time>2017-10-06T07:25:46Z</time>
      </trkpt>
      <trkpt lat="48.39214" lon="2.70368">
        <ele>82.33</ele>
        <time>2017-10-06T07:25:47Z</time>
      </trkpt>
      <trkpt lat="48.39215" lon="2.70367">
        <ele>82.33</ele>
        <time>2017-10-06T07:25:48Z</time>
      </trkpt>
      <trkpt lat="48.39222" lon="2.70366">
        <ele>81.85</ele>
        <time>2017-10-06T07:25:55Z</time>
      </trkpt>
      <trkpt lat="48.39224" lon="2.70366">
        <ele>82.33</ele>
        <time>2017-10-06T07:25:56Z</time>
      </trkpt>
      <trkpt lat="48.39225" lon="2.70366">
        <ele>82.33</ele>
        <time>2017-10-06T07:25:57Z</time>
      </trkpt>
      <trkpt lat="48.39226" lon="2.70365">
        <ele>82.33</ele>
        <time>2017-10-06T07:25:58Z</time>
      </trkpt>
      <trkpt lat="48.39239" lon="2.70362">
        <ele>82.81</ele>
        <time>2017-10-06T07:26:09Z</time>
      </trkpt>
      <trkpt lat="48.39245" lon="2.70359">
        <ele>81.85</ele>
        <time>2017-10-06T07:26:16Z</time>
      </trkpt>
      <trkpt lat="48.39256" lon="2.70359">
        <ele>81.85</ele>
        <time>2017-10-06T07:26:26Z</time>
      </trkpt>
      <trkpt lat="48.39257" lon="2.70361">
        <ele>81.37</ele>
        <time>2017-10-06T07:26:27Z</time>
      </trkpt>
      <trkpt lat="48.39258" lon="2.70365">
        <ele>81.85</ele>
        <time>2017-10-06T07:26:31Z</time>
      </trkpt>
      <trkpt lat="48.39261" lon="2.7037">
        <ele>82.81</ele>
        <time>2017-10-06T07:26:37Z</time>
      </trkpt>
      <trkpt lat="48.39262" lon="2.70373">
        <ele>82.33</ele>
        <time>2017-10-06T07:26:39Z</time>
      </trkpt>
      <trkpt lat="48.39261" lon="2.70376">
        <ele>81.85</ele>
        <time>2017-10-06T07:26:42Z</time>
      </trkpt>
      <trkpt lat="48.39261" lon="2.70378">
        <ele>81.85</ele>
        <time>2017-10-06T07:26:43Z</time>
      </trkpt>
      <trkpt lat="48.39259" lon="2.70391">
        <ele>82.33</ele>
        <time>2017-10-06T07:26:56Z</time>
      </trkpt>
      <trkpt lat="48.39259" lon="2.70391">
        <ele>82.33</ele>
        <time>2017-10-06T07:27:02Z</time>
      </trkpt>
      <trkpt lat="48.39265" lon="2.7038">
        <ele>81.85</ele>
        <time>2017-10-06T07:27:11Z</time>
      </trkpt>
      <trkpt lat="48.39266" lon="2.70375">
        <ele>81.85</ele>
        <time>2017-10-06T07:27:15Z</time>
      </trkpt>
      <trkpt lat="48.39267" lon="2.70372">
        <ele>81.37</ele>
        <time>2017-10-06T07:27:16Z</time>
      </trkpt>
      <trkpt lat="48.39276" lon="2.70355">
        <ele>81.37</ele>
        <time>2017-10-06T07:27:28Z</time>
      </trkpt>
      <trkpt lat="48.3928" lon="2.70353">
        <ele>80.89</ele>
        <time>2017-10-06T07:27:31Z</time>
      </trkpt>
      <trkpt lat="48.39284" lon="2.70352">
        <ele>81.37</ele>
        <time>2017-10-06T07:27:36Z</time>
      </trkpt>
      <trkpt lat="48.39291" lon="2.70344">
        <ele>80.89</ele>
        <time>2017-10-06T07:27:47Z</time>
      </trkpt>
      <trkpt lat="48.39294" lon="2.70343">
        <ele>80.89</ele>
        <time>2017-10-06T07:27:51Z</time>
      </trkpt>
      <trkpt lat="48.39295" lon="2.70342">
        <ele>80.89</ele>
        <time>2017-10-06T07:27:52Z</time>
      </trkpt>
      <trkpt lat="48.39304" lon="2.70341">
        <ele>81.37</ele>
        <time>2017-10-06T07:27:59Z</time>
      </trkpt>
      <trkpt lat="48.39305" lon="2.7034">
        <ele>81.37</ele>
        <time>2017-10-06T07:28:00Z</time>
      </trkpt>
      <trkpt lat="48.39307" lon="2.7034">
        <ele>80.89</ele>
        <time>2017-10-06T07:28:01Z</time>
      </trkpt>
      <trkpt lat="48.39314" lon="2.70336">
        <ele>80.89</ele>
        <time>2017-10-06T07:28:08Z</time>
      </trkpt>
      <trkpt lat="48.39316" lon="2.70335">
        <ele>80.89</ele>
        <time>2017-10-06T07:28:09Z</time>
      </trkpt>
      <trkpt lat="48.39328" lon="2.70329">
        <ele>80.89</ele>
        <time>2017-10-06T07:28:20Z</time>
      </trkpt>
      <trkpt lat="48.39344" lon="2.70327">
        <ele>80.41</ele>
        <time>2017-10-06T07:28:33Z</time>
      </trkpt>
      <trkpt lat="48.39352" lon="2.70327">
        <ele>80.41</ele>
        <time>2017-10-06T07:28:41Z</time>
      </trkpt>
      <trkpt lat="48.39353" lon="2.70328">
        <ele>80.41</ele>
        <time>2017-10-06T07:28:42Z</time>
      </trkpt>
      <trkpt lat="48.39361" lon="2.70338">
        <ele>80.89</ele>
        <time>2017-10-06T07:28:54Z</time>
      </trkpt>
      <trkpt lat="48.39362" lon="2.70339">
        <ele>81.37</ele>
        <time>2017-10-06T07:28:55Z</time>
      </trkpt>
      <trkpt lat="48.39364" lon="2.70339">
        <ele>81.37</ele>
        <time>2017-10-06T07:28:56Z</time>
      </trkpt>
      <trkpt lat="48.39376" lon="2.70347">
        <ele>82.33</ele>
        <time>2017-10-06T07:29:09Z</time>
      </trkpt>
      <trkpt lat="48.39384" lon="2.70349">
        <ele>82.33</ele>
        <time>2017-10-06T07:29:20Z</time>
      </trkpt>
      <trkpt lat="48.39397" lon="2.70349">
        <ele>83.77</ele>
        <time>2017-10-06T07:29:34Z</time>
      </trkpt>
      <trkpt lat="48.3941" lon="2.70352">
        <ele>84.25</ele>
        <time>2017-10-06T07:29:46Z</time>
      </trkpt>
      <trkpt lat="48.39421" lon="2.70351">
        <ele>84.25</ele>
        <time>2017-10-06T07:29:57Z</time>
      </trkpt>
      <trkpt lat="48.39428" lon="2.70355">
        <ele>84.73</ele>
        <time>2017-10-06T07:30:18Z</time>
      </trkpt>
      <trkpt lat="48.39434" lon="2.70356">
        <ele>85.69</ele>
        <time>2017-10-06T07:30:26Z</time>
      </trkpt>
      <trkpt lat="48.3944" lon="2.7036">
        <ele>86.18</ele>
        <time>2017-10-06T07:30:34Z</time>
      </trkpt>
      <trkpt lat="48.3944" lon="2.70363">
        <ele>86.66</ele>
        <time>2017-10-06T07:30:36Z</time>
      </trkpt>
      <trkpt lat="48.3944" lon="2.70369">
        <ele>87.14</ele>
        <time>2017-10-06T07:30:45Z</time>
      </trkpt>
      <trkpt lat="48.39441" lon="2.70363">
        <ele>86.66</ele>
        <time>2017-10-06T07:30:58Z</time>
      </trkpt>
      <trkpt lat="48.39442" lon="2.70361">
        <ele>86.18</ele>
        <time>2017-10-06T07:30:59Z</time>
      </trkpt>
      <trkpt lat="48.39443" lon="2.7036">
        <ele>86.18</ele>
        <time>2017-10-06T07:31:00Z</time>
      </trkpt>
      <trkpt lat="48.39452" lon="2.70364">
        <ele>88.1</ele>
        <time>2017-10-06T07:31:11Z</time>
      </trkpt>
      <trkpt lat="48.39456" lon="2.70369">
        <ele>87.62</ele>
        <time>2017-10-06T07:31:18Z</time>
      </trkpt>
      <trkpt lat="48.3946" lon="2.70371">
        <ele>86.18</ele>
        <time>2017-10-06T07:31:23Z</time>
      </trkpt>
      <trkpt lat="48.39461" lon="2.70373">
        <ele>85.69</ele>
        <time>2017-10-06T07:31:24Z</time>
      </trkpt>
      <trkpt lat="48.39468" lon="2.70379">
        <ele>83.29</ele>
        <time>2017-10-06T07:31:36Z</time>
      </trkpt>
      <trkpt lat="48.39475" lon="2.70386">
        <ele>81.37</ele>
        <time>2017-10-06T07:31:50Z</time>
      </trkpt>
      <trkpt lat="48.39484" lon="2.70396">
        <ele>80.41</ele>
        <time>2017-10-06T07:32:02Z</time>
      </trkpt>
      <trkpt lat="48.3949" lon="2.70405">
        <ele>80.41</ele>
        <time>2017-10-06T07:32:09Z</time>
      </trkpt>
      <trkpt lat="48.39495" lon="2.70411">
        <ele>79.93</ele>
        <time>2017-10-06T07:32:16Z</time>
      </trkpt>
      <trkpt lat="48.39504" lon="2.70419">
        <ele>79.45</ele>
        <time>2017-10-06T07:32:27Z</time>
      </trkpt>
      <trkpt lat="48.39514" lon="2.70424">
        <ele>78.48</ele>
        <time>2017-10-06T07:32:42Z</time>
      </trkpt>
      <trkpt lat="48.39523" lon="2.70431">
        <ele>78.97</ele>
        <time>2017-10-06T07:32:55Z</time>
      </trkpt>
      <trkpt lat="48.39535" lon="2.7044">
        <ele>78.48</ele>
        <time>2017-10-06T07:33:09Z</time>
      </trkpt>
      <trkpt lat="48.3954" lon="2.70444">
        <ele>78</ele>
        <time>2017-10-06T07:33:14Z</time>
      </trkpt>
      <trkpt lat="48.39543" lon="2.70447">
        <ele>78</ele>
        <time>2017-10-06T07:33:19Z</time>
      </trkpt>
      <trkpt lat="48.39551" lon="2.70443">
        <ele>77.52</ele>
        <time>2017-10-06T07:33:29Z</time>
      </trkpt>
      <trkpt lat="48.39559" lon="2.70448">
        <ele>77.52</ele>
        <time>2017-10-06T07:33:36Z</time>
      </trkpt>
      <trkpt lat="48.3956" lon="2.7045">
        <ele>77.52</ele>
        <time>2017-10-06T07:33:37Z</time>
      </trkpt>
      <trkpt lat="48.39566" lon="2.70459">
        <ele>77.52</ele>
        <time>2017-10-06T07:33:43Z</time>
      </trkpt>
      <trkpt lat="48.39569" lon="2.70468">
        <ele>77.52</ele>
        <time>2017-10-06T07:33:51Z</time>
      </trkpt>
      <trkpt lat="48.3957" lon="2.70469">
        <ele>78</ele>
        <time>2017-10-06T07:33:54Z</time>
      </trkpt>
      <trkpt lat="48.3957" lon="2.70471">
        <ele>78</ele>
        <time>2017-10-06T07:33:55Z</time>
      </trkpt>
      <trkpt lat="48.39571" lon="2.70474">
        <ele>78</ele>
        <time>2017-10-06T07:33:56Z</time>
      </trkpt>
      <trkpt lat="48.39571" lon="2.70476">
        <ele>78</ele>
        <time>2017-10-06T07:33:57Z</time>
      </trkpt>
      <trkpt lat="48.39572" lon="2.70478">
        <ele>78</ele>
        <time>2017-10-06T07:33:58Z</time>
      </trkpt>
      <trkpt lat="48.39573" lon="2.70479">
        <ele>78</ele>
        <time>2017-10-06T07:33:59Z</time>
      </trkpt>
      <trkpt lat="48.39577" lon="2.70497">
        <ele>77.52</ele>
        <time>2017-10-06T07:34:12Z</time>
      </trkpt>
      <trkpt lat="48.3958" lon="2.70512">
        <ele>78</ele>
        <time>2017-10-06T07:34:26Z</time>
      </trkpt>
      <trkpt lat="48.39583" lon="2.70528">
        <ele>78</ele>
        <time>2017-10-06T07:34:36Z</time>
      </trkpt>
      <trkpt lat="48.39584" lon="2.7053">
        <ele>78.48</ele>
        <time>2017-10-06T07:34:37Z</time>
      </trkpt>
      <trkpt lat="48.39584" lon="2.70537">
        <ele>78.48</ele>
        <time>2017-10-06T07:34:43Z</time>
      </trkpt>
      <trkpt lat="48.39584" lon="2.70539">
        <ele>78.48</ele>
        <time>2017-10-06T07:34:44Z</time>
      </trkpt>
      <trkpt lat="48.39584" lon="2.70547">
        <ele>78</ele>
        <time>2017-10-06T07:34:50Z</time>
      </trkpt>
      <trkpt lat="48.39585" lon="2.70556">
        <ele>78</ele>
        <time>2017-10-06T07:34:55Z</time>
      </trkpt>
      <trkpt lat="48.39586" lon="2.70559">
        <ele>78.48</ele>
        <time>2017-10-06T07:34:57Z</time>
      </trkpt>
      <trkpt lat="48.39587" lon="2.7056">
        <ele>78</ele>
        <time>2017-10-06T07:34:58Z</time>
      </trkpt>
      <trkpt lat="48.39588" lon="2.70562">
        <ele>78</ele>
        <time>2017-10-06T07:34:59Z</time>
      </trkpt>
      <trkpt lat="48.39593" lon="2.7058">
        <ele>78</ele>
        <time>2017-10-06T07:35:11Z</time>
      </trkpt>
      <trkpt lat="48.39594" lon="2.70583">
        <ele>78</ele>
        <time>2017-10-06T07:35:13Z</time>
      </trkpt>
      <trkpt lat="48.39594" lon="2.70586">
        <ele>78</ele>
        <time>2017-10-06T07:35:14Z</time>
      </trkpt>
      <trkpt lat="48.39595" lon="2.70588">
        <ele>78</ele>
        <time>2017-10-06T07:35:15Z</time>
      </trkpt>
      <trkpt lat="48.39596" lon="2.70595">
        <ele>78</ele>
        <time>2017-10-06T07:35:20Z</time>
      </trkpt>
      <trkpt lat="48.39597" lon="2.70597">
        <ele>78</ele>
        <time>2017-10-06T07:35:21Z</time>
      </trkpt>
      <trkpt lat="48.39597" lon="2.70599">
        <ele>78</ele>
        <time>2017-10-06T07:35:22Z</time>
      </trkpt>
      <trkpt lat="48.39598" lon="2.70601">
        <ele>78</ele>
        <time>2017-10-06T07:35:23Z</time>
      </trkpt>
      <trkpt lat="48.39601" lon="2.70617">
        <ele>78</ele>
        <time>2017-10-06T07:35:33Z</time>
      </trkpt>
      <trkpt lat="48.39601" lon="2.70619">
        <ele>78</ele>
        <time>2017-10-06T07:35:34Z</time>
      </trkpt>
      <trkpt lat="48.39601" lon="2.70621">
        <ele>78.48</ele>
        <time>2017-10-06T07:35:35Z</time>
      </trkpt>
      <trkpt lat="48.39603" lon="2.70631">
        <ele>78.48</ele>
        <time>2017-10-06T07:35:41Z</time>
      </trkpt>
      <trkpt lat="48.39603" lon="2.70641">
        <ele>78.48</ele>
        <time>2017-10-06T07:35:47Z</time>
      </trkpt>
      <trkpt lat="48.39604" lon="2.70643">
        <ele>78.48</ele>
        <time>2017-10-06T07:35:48Z</time>
      </trkpt>
      <trkpt lat="48.39603" lon="2.70645">
        <ele>78</ele>
        <time>2017-10-06T07:35:49Z</time>
      </trkpt>
      <trkpt lat="48.396" lon="2.7066">
        <ele>78</ele>
        <time>2017-10-06T07:35:59Z</time>
      </trkpt>
      <trkpt lat="48.39597" lon="2.70679">
        <ele>78</ele>
        <time>2017-10-06T07:36:07Z</time>
      </trkpt>
      <trkpt lat="48.39596" lon="2.70683">
        <ele>78.97</ele>
        <time>2017-10-06T07:36:08Z</time>
      </trkpt>
      <trkpt lat="48.39595" lon="2.70686">
        <ele>78.97</ele>
        <time>2017-10-06T07:36:09Z</time>
      </trkpt>
      <trkpt lat="48.39595" lon="2.70689">
        <ele>78.97</ele>
        <time>2017-10-06T07:36:10Z</time>
      </trkpt>
      <trkpt lat="48.39594" lon="2.70691">
        <ele>78.48</ele>
        <time>2017-10-06T07:36:11Z</time>
      </trkpt>
      <trkpt lat="48.39594" lon="2.70693">
        <ele>78.48</ele>
        <time>2017-10-06T07:36:12Z</time>
      </trkpt>
      <trkpt lat="48.39592" lon="2.70707">
        <ele>78.48</ele>
        <time>2017-10-06T07:36:22Z</time>
      </trkpt>
      <trkpt lat="48.39592" lon="2.70723">
        <ele>78.97</ele>
        <time>2017-10-06T07:36:31Z</time>
      </trkpt>
      <trkpt lat="48.39592" lon="2.70726">
        <ele>78.48</ele>
        <time>2017-10-06T07:36:32Z</time>
      </trkpt>
      <trkpt lat="48.39589" lon="2.70741">
        <ele>79.45</ele>
        <time>2017-10-06T07:36:42Z</time>
      </trkpt>
      <trkpt lat="48.39589" lon="2.70743">
        <ele>79.45</ele>
        <time>2017-10-06T07:36:55Z</time>
      </trkpt>
      <trkpt lat="48.39589" lon="2.70746">
        <ele>79.45</ele>
        <time>2017-10-06T07:37:13Z</time>
      </trkpt>
      <trkpt lat="48.39589" lon="2.70749">
        <ele>79.45</ele>
        <time>2017-10-06T07:37:18Z</time>
      </trkpt>
      <trkpt lat="48.39589" lon="2.70751">
        <ele>78.97</ele>
        <time>2017-10-06T07:37:19Z</time>
      </trkpt>
      <trkpt lat="48.39589" lon="2.70763">
        <ele>79.45</ele>
        <time>2017-10-06T07:37:30Z</time>
      </trkpt>
      <trkpt lat="48.39589" lon="2.70765">
        <ele>78.97</ele>
        <time>2017-10-06T07:37:31Z</time>
      </trkpt>
      <trkpt lat="48.39589" lon="2.70767">
        <ele>79.45</ele>
        <time>2017-10-06T07:37:32Z</time>
      </trkpt>
      <trkpt lat="48.39588" lon="2.70782">
        <ele>79.45</ele>
        <time>2017-10-06T07:37:43Z</time>
      </trkpt>
      <trkpt lat="48.39586" lon="2.70798">
        <ele>79.45</ele>
        <time>2017-10-06T07:37:53Z</time>
      </trkpt>
      <trkpt lat="48.39588" lon="2.70804">
        <ele>79.45</ele>
        <time>2017-10-06T07:37:58Z</time>
      </trkpt>
      <trkpt lat="48.39588" lon="2.70806">
        <ele>79.93</ele>
        <time>2017-10-06T07:37:59Z</time>
      </trkpt>
      <trkpt lat="48.3959" lon="2.70824">
        <ele>79.93</ele>
        <time>2017-10-06T07:38:11Z</time>
      </trkpt>
      <trkpt lat="48.3959" lon="2.70825">
        <ele>80.41</ele>
        <time>2017-10-06T07:38:12Z</time>
      </trkpt>
      <trkpt lat="48.39588" lon="2.70842">
        <ele>79.93</ele>
        <time>2017-10-06T07:38:23Z</time>
      </trkpt>
      <trkpt lat="48.39587" lon="2.70857">
        <ele>80.41</ele>
        <time>2017-10-06T07:38:33Z</time>
      </trkpt>
      <trkpt lat="48.39587" lon="2.7086">
        <ele>80.41</ele>
        <time>2017-10-06T07:38:34Z</time>
      </trkpt>
      <trkpt lat="48.39587" lon="2.70862">
        <ele>79.93</ele>
        <time>2017-10-06T07:38:35Z</time>
      </trkpt>
      <trkpt lat="48.39587" lon="2.70871">
        <ele>79.93</ele>
        <time>2017-10-06T07:38:41Z</time>
      </trkpt>
      <trkpt lat="48.39588" lon="2.70892">
        <ele>80.41</ele>
        <time>2017-10-06T07:38:52Z</time>
      </trkpt>
      <trkpt lat="48.3959" lon="2.70913">
        <ele>80.89</ele>
        <time>2017-10-06T07:39:05Z</time>
      </trkpt>
      <trkpt lat="48.39588" lon="2.70933">
        <ele>80.89</ele>
        <time>2017-10-06T07:39:17Z</time>
      </trkpt>
      <trkpt lat="48.39588" lon="2.70943">
        <ele>81.37</ele>
        <time>2017-10-06T07:39:22Z</time>
      </trkpt>
      <trkpt lat="48.3959" lon="2.70951">
        <ele>80.89</ele>
        <time>2017-10-06T07:39:27Z</time>
      </trkpt>
      <trkpt lat="48.3959" lon="2.70954">
        <ele>80.89</ele>
        <time>2017-10-06T07:39:28Z</time>
      </trkpt>
      <trkpt lat="48.39586" lon="2.70974">
        <ele>80.89</ele>
        <time>2017-10-06T07:39:39Z</time>
      </trkpt>
      <trkpt lat="48.3958" lon="2.70996">
        <ele>81.37</ele>
        <time>2017-10-06T07:39:51Z</time>
      </trkpt>
      <trkpt lat="48.39579" lon="2.71007">
        <ele>80.89</ele>
        <time>2017-10-06T07:39:58Z</time>
      </trkpt>
      <trkpt lat="48.39579" lon="2.71009">
        <ele>81.37</ele>
        <time>2017-10-06T07:39:59Z</time>
      </trkpt>
      <trkpt lat="48.39579" lon="2.71027">
        <ele>81.37</ele>
        <time>2017-10-06T07:40:09Z</time>
      </trkpt>
      <trkpt lat="48.39578" lon="2.71042">
        <ele>81.37</ele>
        <time>2017-10-06T07:40:17Z</time>
      </trkpt>
      <trkpt lat="48.39576" lon="2.71064">
        <ele>81.85</ele>
        <time>2017-10-06T07:40:29Z</time>
      </trkpt>
      <trkpt lat="48.39575" lon="2.7108">
        <ele>82.33</ele>
        <time>2017-10-06T07:40:41Z</time>
      </trkpt>
      <trkpt lat="48.39574" lon="2.71099">
        <ele>81.85</ele>
        <time>2017-10-06T07:40:52Z</time>
      </trkpt>
      <trkpt lat="48.39573" lon="2.71114">
        <ele>82.33</ele>
        <time>2017-10-06T07:41:01Z</time>
      </trkpt>
      <trkpt lat="48.39572" lon="2.7112">
        <ele>81.85</ele>
        <time>2017-10-06T07:41:05Z</time>
      </trkpt>
      <trkpt lat="48.39572" lon="2.71123">
        <ele>81.85</ele>
        <time>2017-10-06T07:41:06Z</time>
      </trkpt>
      <trkpt lat="48.39569" lon="2.71133">
        <ele>82.33</ele>
        <time>2017-10-06T07:41:13Z</time>
      </trkpt>
      <trkpt lat="48.39569" lon="2.71134">
        <ele>82.33</ele>
        <time>2017-10-06T07:41:16Z</time>
      </trkpt>
      <trkpt lat="48.39555" lon="2.71142">
        <ele>82.33</ele>
        <time>2017-10-06T07:41:26Z</time>
      </trkpt>
      <trkpt lat="48.39543" lon="2.71157">
        <ele>82.33</ele>
        <time>2017-10-06T07:41:38Z</time>
      </trkpt>
      <trkpt lat="48.39535" lon="2.71164">
        <ele>83.29</ele>
        <time>2017-10-06T07:41:48Z</time>
      </trkpt>
      <trkpt lat="48.39532" lon="2.71166">
        <ele>83.29</ele>
        <time>2017-10-06T07:41:54Z</time>
      </trkpt>
      <trkpt lat="48.39527" lon="2.71173">
        <ele>83.29</ele>
        <time>2017-10-06T07:41:59Z</time>
      </trkpt>
      <trkpt lat="48.39519" lon="2.71178">
        <ele>83.77</ele>
        <time>2017-10-06T07:42:09Z</time>
      </trkpt>
      <trkpt lat="48.39511" lon="2.71187">
        <ele>83.29</ele>
        <time>2017-10-06T07:42:19Z</time>
      </trkpt>
      <trkpt lat="48.39502" lon="2.71199">
        <ele>83.29</ele>
        <time>2017-10-06T07:42:29Z</time>
      </trkpt>
      <trkpt lat="48.39489" lon="2.7121">
        <ele>83.77</ele>
        <time>2017-10-06T07:42:41Z</time>
      </trkpt>
      <trkpt lat="48.39484" lon="2.71218">
        <ele>83.77</ele>
        <time>2017-10-06T07:42:49Z</time>
      </trkpt>
      <trkpt lat="48.39483" lon="2.7122">
        <ele>83.77</ele>
        <time>2017-10-06T07:42:50Z</time>
      </trkpt>
      <trkpt lat="48.39483" lon="2.71223">
        <ele>83.77</ele>
        <time>2017-10-06T07:42:51Z</time>
      </trkpt>
      <trkpt lat="48.3948" lon="2.71241">
        <ele>83.77</ele>
        <time>2017-10-06T07:43:02Z</time>
      </trkpt>
      <trkpt lat="48.39481" lon="2.71244">
        <ele>83.77</ele>
        <time>2017-10-06T07:43:08Z</time>
      </trkpt>
      <trkpt lat="48.39476" lon="2.71253">
        <ele>84.25</ele>
        <time>2017-10-06T07:43:19Z</time>
      </trkpt>
      <trkpt lat="48.39472" lon="2.71258">
        <ele>84.25</ele>
        <time>2017-10-06T07:43:26Z</time>
      </trkpt>
      <trkpt lat="48.39471" lon="2.71259">
        <ele>84.25</ele>
        <time>2017-10-06T07:43:27Z</time>
      </trkpt>
      <trkpt lat="48.39463" lon="2.71269">
        <ele>84.73</ele>
        <time>2017-10-06T07:43:37Z</time>
      </trkpt>
      <trkpt lat="48.39458" lon="2.71282">
        <ele>84.73</ele>
        <time>2017-10-06T07:43:49Z</time>
      </trkpt>
      <trkpt lat="48.39455" lon="2.71288">
        <ele>85.69</ele>
        <time>2017-10-06T07:43:53Z</time>
      </trkpt>
      <trkpt lat="48.39458" lon="2.713">
        <ele>87.14</ele>
        <time>2017-10-06T07:44:05Z</time>
      </trkpt>
      <trkpt lat="48.39463" lon="2.71317">
        <ele>86.66</ele>
        <time>2017-10-06T07:44:20Z</time>
      </trkpt>
      <trkpt lat="48.39467" lon="2.71333">
        <ele>87.14</ele>
        <time>2017-10-06T07:44:36Z</time>
      </trkpt>
      <trkpt lat="48.39466" lon="2.71348">
        <ele>87.62</ele>
        <time>2017-10-06T07:44:45Z</time>
      </trkpt>
      <trkpt lat="48.39467" lon="2.71359">
        <ele>88.1</ele>
        <time>2017-10-06T07:44:51Z</time>
      </trkpt>
      <trkpt lat="48.39467" lon="2.71361">
        <ele>87.62</ele>
        <time>2017-10-06T07:44:52Z</time>
      </trkpt>
      <trkpt lat="48.39462" lon="2.71377">
        <ele>88.1</ele>
        <time>2017-10-06T07:45:02Z</time>
      </trkpt>
      <trkpt lat="48.39461" lon="2.71378">
        <ele>89.06</ele>
        <time>2017-10-06T07:45:03Z</time>
      </trkpt>
      <trkpt lat="48.39457" lon="2.71393">
        <ele>89.06</ele>
        <time>2017-10-06T07:45:15Z</time>
      </trkpt>
      <trkpt lat="48.39456" lon="2.71395">
        <ele>89.54</ele>
        <time>2017-10-06T07:45:17Z</time>
      </trkpt>
      <trkpt lat="48.39455" lon="2.71397">
        <ele>89.54</ele>
        <time>2017-10-06T07:45:18Z</time>
      </trkpt>
      <trkpt lat="48.39454" lon="2.71399">
        <ele>89.54</ele>
        <time>2017-10-06T07:45:19Z</time>
      </trkpt>
      <trkpt lat="48.3945" lon="2.71409">
        <ele>89.54</ele>
        <time>2017-10-06T07:45:30Z</time>
      </trkpt>
      <trkpt lat="48.39444" lon="2.7142">
        <ele>90.02</ele>
        <time>2017-10-06T07:45:45Z</time>
      </trkpt>
      <trkpt lat="48.39441" lon="2.71429">
        <ele>90.5</ele>
        <time>2017-10-06T07:45:58Z</time>
      </trkpt>
      <trkpt lat="48.39436" lon="2.71435">
        <ele>91.94</ele>
        <time>2017-10-06T07:46:11Z</time>
      </trkpt>
      <trkpt lat="48.39432" lon="2.71441">
        <ele>92.42</ele>
        <time>2017-10-06T07:46:23Z</time>
      </trkpt>
      <trkpt lat="48.39427" lon="2.71448">
        <ele>93.87</ele>
        <time>2017-10-06T07:46:29Z</time>
      </trkpt>
      <trkpt lat="48.39425" lon="2.71449">
        <ele>92.9</ele>
        <time>2017-10-06T07:46:30Z</time>
      </trkpt>
      <trkpt lat="48.39424" lon="2.71449">
        <ele>92.9</ele>
        <time>2017-10-06T07:46:44Z</time>
      </trkpt>
      <trkpt lat="48.39412" lon="2.71446">
        <ele>92.9</ele>
        <time>2017-10-06T07:46:58Z</time>
      </trkpt>
      <trkpt lat="48.39409" lon="2.7145">
        <ele>93.87</ele>
        <time>2017-10-06T07:47:12Z</time>
      </trkpt>
      <trkpt lat="48.39407" lon="2.71453">
        <ele>94.35</ele>
        <time>2017-10-06T07:47:35Z</time>
      </trkpt>
      <trkpt lat="48.39403" lon="2.71454">
        <ele>92.9</ele>
        <time>2017-10-06T07:47:39Z</time>
      </trkpt>
      <trkpt lat="48.39402" lon="2.71455">
        <ele>93.87</ele>
        <time>2017-10-06T07:47:40Z</time>
      </trkpt>
      <trkpt lat="48.39392" lon="2.71466">
        <ele>94.35</ele>
        <time>2017-10-06T07:47:52Z</time>
      </trkpt>
      <trkpt lat="48.39387" lon="2.71483">
        <ele>94.35</ele>
        <time>2017-10-06T07:48:06Z</time>
      </trkpt>
      <trkpt lat="48.39384" lon="2.71496">
        <ele>94.83</ele>
        <time>2017-10-06T07:48:16Z</time>
      </trkpt>
      <trkpt lat="48.39383" lon="2.71497">
        <ele>95.79</ele>
        <time>2017-10-06T07:48:17Z</time>
      </trkpt>
      <trkpt lat="48.39382" lon="2.715">
        <ele>95.79</ele>
        <time>2017-10-06T07:48:20Z</time>
      </trkpt>
      <trkpt lat="48.39381" lon="2.71513">
        <ele>97.23</ele>
        <time>2017-10-06T07:48:30Z</time>
      </trkpt>
      <trkpt lat="48.39381" lon="2.71522">
        <ele>97.23</ele>
        <time>2017-10-06T07:48:38Z</time>
      </trkpt>
      <trkpt lat="48.39379" lon="2.71523">
        <ele>97.23</ele>
        <time>2017-10-06T07:48:39Z</time>
      </trkpt>
      <trkpt lat="48.39368" lon="2.71525">
        <ele>98.67</ele>
        <time>2017-10-06T07:48:49Z</time>
      </trkpt>
      <trkpt lat="48.39364" lon="2.71532">
        <ele>100.6</ele>
        <time>2017-10-06T07:49:00Z</time>
      </trkpt>
      <trkpt lat="48.39366" lon="2.71556">
        <ele>102.52</ele>
        <time>2017-10-06T07:49:15Z</time>
      </trkpt>
      <trkpt lat="48.39373" lon="2.71565">
        <ele>103.48</ele>
        <time>2017-10-06T07:49:28Z</time>
      </trkpt>
      <trkpt lat="48.3938" lon="2.71572">
        <ele>104.92</ele>
        <time>2017-10-06T07:49:40Z</time>
      </trkpt>
      <trkpt lat="48.3939" lon="2.71574">
        <ele>103.48</ele>
        <time>2017-10-06T07:49:52Z</time>
      </trkpt>
      <trkpt lat="48.39395" lon="2.71577">
        <ele>103</ele>
        <time>2017-10-06T07:50:02Z</time>
      </trkpt>
      <trkpt lat="48.39399" lon="2.71573">
        <ele>102.52</ele>
        <time>2017-10-06T07:50:12Z</time>
      </trkpt>
      <trkpt lat="48.39406" lon="2.71572">
        <ele>101.56</ele>
        <time>2017-10-06T07:50:22Z</time>
      </trkpt>
      <trkpt lat="48.39413" lon="2.71579">
        <ele>99.63</ele>
        <time>2017-10-06T07:50:36Z</time>
      </trkpt>
      <trkpt lat="48.39413" lon="2.71581">
        <ele>100.6</ele>
        <time>2017-10-06T07:50:38Z</time>
      </trkpt>
      <trkpt lat="48.39411" lon="2.71587">
        <ele>99.63</ele>
        <time>2017-10-06T07:50:41Z</time>
      </trkpt>
      <trkpt lat="48.394" lon="2.71588">
        <ele>100.11</ele>
        <time>2017-10-06T07:50:55Z</time>
      </trkpt>
      <trkpt lat="48.39397" lon="2.71588">
        <ele>101.08</ele>
        <time>2017-10-06T07:51:10Z</time>
      </trkpt>
      <trkpt lat="48.39395" lon="2.71598">
        <ele>101.08</ele>
        <time>2017-10-06T07:51:24Z</time>
      </trkpt>
      <trkpt lat="48.39384" lon="2.71607">
        <ele>101.08</ele>
        <time>2017-10-06T07:51:36Z</time>
      </trkpt>
      <trkpt lat="48.39375" lon="2.71616">
        <ele>99.63</ele>
        <time>2017-10-06T07:51:47Z</time>
      </trkpt>
      <trkpt lat="48.39372" lon="2.71617">
        <ele>100.11</ele>
        <time>2017-10-06T07:51:50Z</time>
      </trkpt>
      <trkpt lat="48.39369" lon="2.7162">
        <ele>101.08</ele>
        <time>2017-10-06T07:51:54Z</time>
      </trkpt>
      <trkpt lat="48.39367" lon="2.71625">
        <ele>101.08</ele>
        <time>2017-10-06T07:51:58Z</time>
      </trkpt>
      <trkpt lat="48.39362" lon="2.71631">
        <ele>101.08</ele>
        <time>2017-10-06T07:52:05Z</time>
      </trkpt>
      <trkpt lat="48.39358" lon="2.71633">
        <ele>101.08</ele>
        <time>2017-10-06T07:52:08Z</time>
      </trkpt>
      <trkpt lat="48.39354" lon="2.71637">
        <ele>101.56</ele>
        <time>2017-10-06T07:52:13Z</time>
      </trkpt>
      <trkpt lat="48.39352" lon="2.7164">
        <ele>102.52</ele>
        <time>2017-10-06T07:52:18Z</time>
      </trkpt>
      <trkpt lat="48.39351" lon="2.71658">
        <ele>102.04</ele>
        <time>2017-10-06T07:52:31Z</time>
      </trkpt>
      <trkpt lat="48.3935" lon="2.71667">
        <ele>101.56</ele>
        <time>2017-10-06T07:52:44Z</time>
      </trkpt>
      <trkpt lat="48.3934" lon="2.71677">
        <ele>101.56</ele>
        <time>2017-10-06T07:52:55Z</time>
      </trkpt>
      <trkpt lat="48.39335" lon="2.7169">
        <ele>102.52</ele>
        <time>2017-10-06T07:53:05Z</time>
      </trkpt>
      <trkpt lat="48.39334" lon="2.71696">
        <ele>102.52</ele>
        <time>2017-10-06T07:53:10Z</time>
      </trkpt>
      <trkpt lat="48.39336" lon="2.71714">
        <ele>103</ele>
        <time>2017-10-06T07:53:18Z</time>
      </trkpt>
      <trkpt lat="48.39345" lon="2.71716">
        <ele>102.52</ele>
        <time>2017-10-06T07:53:31Z</time>
      </trkpt>
      <trkpt lat="48.39348" lon="2.71711">
        <ele>103</ele>
        <time>2017-10-06T07:53:36Z</time>
      </trkpt>
      <trkpt lat="48.39356" lon="2.71704">
        <ele>103</ele>
        <time>2017-10-06T07:53:48Z</time>
      </trkpt>
      <trkpt lat="48.39357" lon="2.71699">
        <ele>103</ele>
        <time>2017-10-06T07:54:02Z</time>
      </trkpt>
      <trkpt lat="48.39358" lon="2.71701">
        <ele>102.52</ele>
        <time>2017-10-06T07:54:13Z</time>
      </trkpt>
      <trkpt lat="48.39362" lon="2.71705">
        <ele>103.48</ele>
        <time>2017-10-06T07:54:25Z</time>
      </trkpt>
      <trkpt lat="48.39371" lon="2.71712">
        <ele>102.04</ele>
        <time>2017-10-06T07:54:38Z</time>
      </trkpt>
      <trkpt lat="48.39371" lon="2.71721">
        <ele>101.56</ele>
        <time>2017-10-06T07:54:43Z</time>
      </trkpt>
      <trkpt lat="48.39371" lon="2.71726">
        <ele>101.08</ele>
        <time>2017-10-06T07:54:58Z</time>
      </trkpt>
      <trkpt lat="48.39367" lon="2.71719">
        <ele>103</ele>
        <time>2017-10-06T07:55:11Z</time>
      </trkpt>
      <trkpt lat="48.39373" lon="2.71721">
        <ele>101.08</ele>
        <time>2017-10-06T07:55:26Z</time>
      </trkpt>
      <trkpt lat="48.39369" lon="2.71731">
        <ele>101.56</ele>
        <time>2017-10-06T07:55:39Z</time>
      </trkpt>
      <trkpt lat="48.3936" lon="2.71741">
        <ele>103.48</ele>
        <time>2017-10-06T07:55:57Z</time>
      </trkpt>
      <trkpt lat="48.39355" lon="2.71745">
        <ele>103.48</ele>
        <time>2017-10-06T07:56:12Z</time>
      </trkpt>
      <trkpt lat="48.39354" lon="2.71759">
        <ele>103.48</ele>
        <time>2017-10-06T07:56:24Z</time>
      </trkpt>
      <trkpt lat="48.39351" lon="2.71764">
        <ele>103.96</ele>
        <time>2017-10-06T07:56:40Z</time>
      </trkpt>
      <trkpt lat="48.39352" lon="2.71771">
        <ele>103.96</ele>
        <time>2017-10-06T07:56:52Z</time>
      </trkpt>
      <trkpt lat="48.39349" lon="2.71789">
        <ele>105.88</ele>
        <time>2017-10-06T07:57:03Z</time>
      </trkpt>
      <trkpt lat="48.39355" lon="2.71806">
        <ele>107.81</ele>
        <time>2017-10-06T07:57:18Z</time>
      </trkpt>
      <trkpt lat="48.39353" lon="2.71806">
        <ele>107.32</ele>
        <time>2017-10-06T07:57:19Z</time>
      </trkpt>
      <trkpt lat="48.39354" lon="2.7181">
        <ele>108.77</ele>
        <time>2017-10-06T07:57:31Z</time>
      </trkpt>
      <trkpt lat="48.39354" lon="2.7182">
        <ele>109.25</ele>
        <time>2017-10-06T07:57:45Z</time>
      </trkpt>
      <trkpt lat="48.39355" lon="2.71821">
        <ele>109.73</ele>
        <time>2017-10-06T07:57:55Z</time>
      </trkpt>
      <trkpt lat="48.39361" lon="2.7182">
        <ele>109.73</ele>
        <time>2017-10-06T07:58:07Z</time>
      </trkpt>
      <trkpt lat="48.39368" lon="2.7183">
        <ele>111.17</ele>
        <time>2017-10-06T07:58:20Z</time>
      </trkpt>
      <trkpt lat="48.39367" lon="2.7183">
        <ele>110.69</ele>
        <time>2017-10-06T07:58:21Z</time>
      </trkpt>
      <trkpt lat="48.39363" lon="2.71833">
        <ele>111.65</ele>
        <time>2017-10-06T07:58:27Z</time>
      </trkpt>
      <trkpt lat="48.39363" lon="2.71839">
        <ele>112.61</ele>
        <time>2017-10-06T07:58:40Z</time>
      </trkpt>
      <trkpt lat="48.39368" lon="2.71844">
        <ele>114.05</ele>
        <time>2017-10-06T07:58:53Z</time>
      </trkpt>
      <trkpt lat="48.39373" lon="2.7186">
        <ele>114.05</ele>
        <time>2017-10-06T07:59:09Z</time>
      </trkpt>
      <trkpt lat="48.39367" lon="2.71863">
        <ele>115.01</ele>
        <time>2017-10-06T07:59:21Z</time>
      </trkpt>
      <trkpt lat="48.39367" lon="2.71868">
        <ele>116.46</ele>
        <time>2017-10-06T07:59:37Z</time>
      </trkpt>
      <trkpt lat="48.39368" lon="2.71869">
        <ele>116.94</ele>
        <time>2017-10-06T07:59:50Z</time>
      </trkpt>
      <trkpt lat="48.39371" lon="2.71876">
        <ele>117.42</ele>
        <time>2017-10-06T08:00:09Z</time>
      </trkpt>
      <trkpt lat="48.39372" lon="2.71877">
        <ele>116.94</ele>
        <time>2017-10-06T08:00:22Z</time>
      </trkpt>
      <trkpt lat="48.39378" lon="2.71883">
        <ele>117.42</ele>
        <time>2017-10-06T08:00:41Z</time>
      </trkpt>
      <trkpt lat="48.3938" lon="2.71891">
        <ele>117.9</ele>
        <time>2017-10-06T08:00:54Z</time>
      </trkpt>
      <trkpt lat="48.39381" lon="2.7189">
        <ele>118.38</ele>
        <time>2017-10-06T08:01:06Z</time>
      </trkpt>
      <trkpt lat="48.39375" lon="2.71883">
        <ele>118.86</ele>
        <time>2017-10-06T08:01:33Z</time>
      </trkpt>
      <trkpt lat="48.39375" lon="2.71892">
        <ele>118.86</ele>
        <time>2017-10-06T08:01:57Z</time>
      </trkpt>
      <trkpt lat="48.39379" lon="2.71903">
        <ele>118.86</ele>
        <time>2017-10-06T08:02:03Z</time>
      </trkpt>
      <trkpt lat="48.39384" lon="2.71916">
        <ele>120.78</ele>
        <time>2017-10-06T08:02:19Z</time>
      </trkpt>
      <trkpt lat="48.39388" lon="2.71924">
        <ele>120.3</ele>
        <time>2017-10-06T08:02:32Z</time>
      </trkpt>
      <trkpt lat="48.39391" lon="2.7192">
        <ele>121.26</ele>
        <time>2017-10-06T08:02:37Z</time>
      </trkpt>
      <trkpt lat="48.39397" lon="2.71918">
        <ele>121.74</ele>
        <time>2017-10-06T08:02:51Z</time>
      </trkpt>
      <trkpt lat="48.39403" lon="2.7192">
        <ele>121.74</ele>
        <time>2017-10-06T08:03:26Z</time>
      </trkpt>
      <trkpt lat="48.39404" lon="2.71916">
        <ele>121.26</ele>
        <time>2017-10-06T08:03:51Z</time>
      </trkpt>
      <trkpt lat="48.39404" lon="2.71915">
        <ele>121.74</ele>
        <time>2017-10-06T08:03:53Z</time>
      </trkpt>
      <trkpt lat="48.39406" lon="2.71904">
        <ele>119.82</ele>
        <time>2017-10-06T08:04:06Z</time>
      </trkpt>
      <trkpt lat="48.39407" lon="2.71902">
        <ele>118.86</ele>
        <time>2017-10-06T08:04:13Z</time>
      </trkpt>
      <trkpt lat="48.39408" lon="2.71904">
        <ele>115.98</ele>
        <time>2017-10-06T08:04:26Z</time>
      </trkpt>
      <trkpt lat="48.39411" lon="2.7191">
        <ele>114.53</ele>
        <time>2017-10-06T08:04:38Z</time>
      </trkpt>
      <trkpt lat="48.3941" lon="2.71913">
        <ele>115.01</ele>
        <time>2017-10-06T08:04:55Z</time>
      </trkpt>
      <trkpt lat="48.3941" lon="2.7191">
        <ele>115.5</ele>
        <time>2017-10-06T08:05:11Z</time>
      </trkpt>
      <trkpt lat="48.3941" lon="2.71909">
        <ele>115.01</ele>
        <time>2017-10-06T08:05:18Z</time>
      </trkpt>
      <trkpt lat="48.39411" lon="2.71896">
        <ele>113.09</ele>
        <time>2017-10-06T08:05:30Z</time>
      </trkpt>
      <trkpt lat="48.39411" lon="2.71894">
        <ele>112.61</ele>
        <time>2017-10-06T08:05:33Z</time>
      </trkpt>
      <trkpt lat="48.39417" lon="2.71894">
        <ele>110.69</ele>
        <time>2017-10-06T08:05:46Z</time>
      </trkpt>
      <trkpt lat="48.39421" lon="2.71897">
        <ele>109.25</ele>
        <time>2017-10-06T08:05:53Z</time>
      </trkpt>
      <trkpt lat="48.39423" lon="2.71908">
        <ele>107.81</ele>
        <time>2017-10-06T08:06:05Z</time>
      </trkpt>
      <trkpt lat="48.39426" lon="2.71913">
        <ele>106.36</ele>
        <time>2017-10-06T08:06:15Z</time>
      </trkpt>
      <trkpt lat="48.39425" lon="2.7192">
        <ele>105.4</ele>
        <time>2017-10-06T08:06:23Z</time>
      </trkpt>
      <trkpt lat="48.39427" lon="2.71935">
        <ele>103.96</ele>
        <time>2017-10-06T08:06:34Z</time>
      </trkpt>
      <trkpt lat="48.39424" lon="2.71938">
        <ele>104.44</ele>
        <time>2017-10-06T08:06:49Z</time>
      </trkpt>
      <trkpt lat="48.39427" lon="2.71946">
        <ele>103</ele>
        <time>2017-10-06T08:07:04Z</time>
      </trkpt>
      <trkpt lat="48.39422" lon="2.71956">
        <ele>103.48</ele>
        <time>2017-10-06T08:07:25Z</time>
      </trkpt>
      <trkpt lat="48.39415" lon="2.7196">
        <ele>103.96</ele>
        <time>2017-10-06T08:07:30Z</time>
      </trkpt>
      <trkpt lat="48.39407" lon="2.71966">
        <ele>103.96</ele>
        <time>2017-10-06T08:07:38Z</time>
      </trkpt>
      <trkpt lat="48.39399" lon="2.71972">
        <ele>103.96</ele>
        <time>2017-10-06T08:07:50Z</time>
      </trkpt>
      <trkpt lat="48.39398" lon="2.71974">
        <ele>102.04</ele>
        <time>2017-10-06T08:08:03Z</time>
      </trkpt>
      <trkpt lat="48.39396" lon="2.71971">
        <ele>103.48</ele>
        <time>2017-10-06T08:08:19Z</time>
      </trkpt>
      <trkpt lat="48.394" lon="2.71973">
        <ele>101.08</ele>
        <time>2017-10-06T08:08:36Z</time>
      </trkpt>
      <trkpt lat="48.39404" lon="2.71977">
        <ele>100.6</ele>
        <time>2017-10-06T08:08:49Z</time>
      </trkpt>
      <trkpt lat="48.39407" lon="2.71982">
        <ele>100.6</ele>
        <time>2017-10-06T08:09:12Z</time>
      </trkpt>
      <trkpt lat="48.39408" lon="2.71996">
        <ele>101.08</ele>
        <time>2017-10-06T08:09:43Z</time>
      </trkpt>
      <trkpt lat="48.39401" lon="2.71997">
        <ele>99.63</ele>
        <time>2017-10-06T08:09:57Z</time>
      </trkpt>
      <trkpt lat="48.39407" lon="2.71999">
        <ele>99.15</ele>
        <time>2017-10-06T08:10:07Z</time>
      </trkpt>
      <trkpt lat="48.39408" lon="2.71997">
        <ele>98.19</ele>
        <time>2017-10-06T08:10:09Z</time>
      </trkpt>
      <trkpt lat="48.39415" lon="2.72002">
        <ele>98.19</ele>
        <time>2017-10-06T08:10:20Z</time>
      </trkpt>
      <trkpt lat="48.39419" lon="2.72009">
        <ele>100.6</ele>
        <time>2017-10-06T08:10:34Z</time>
      </trkpt>
      <trkpt lat="48.39414" lon="2.7201">
        <ele>102.52</ele>
        <time>2017-10-06T08:10:45Z</time>
      </trkpt>
      <trkpt lat="48.39409" lon="2.72011">
        <ele>103.96</ele>
        <time>2017-10-06T08:10:55Z</time>
      </trkpt>
      <trkpt lat="48.39409" lon="2.72023">
        <ele>105.88</ele>
        <time>2017-10-06T08:11:06Z</time>
      </trkpt>
      <trkpt lat="48.39408" lon="2.72034">
        <ele>105.4</ele>
        <time>2017-10-06T08:11:20Z</time>
      </trkpt>
      <trkpt lat="48.39399" lon="2.72043">
        <ele>106.36</ele>
        <time>2017-10-06T08:11:31Z</time>
      </trkpt>
      <trkpt lat="48.39388" lon="2.72048">
        <ele>107.81</ele>
        <time>2017-10-06T08:11:44Z</time>
      </trkpt>
      <trkpt lat="48.39383" lon="2.72056">
        <ele>108.77</ele>
        <time>2017-10-06T08:11:53Z</time>
      </trkpt>
      <trkpt lat="48.39379" lon="2.72066">
        <ele>109.73</ele>
        <time>2017-10-06T08:12:05Z</time>
      </trkpt>
      <trkpt lat="48.39379" lon="2.72067">
        <ele>109.73</ele>
        <time>2017-10-06T08:12:06Z</time>
      </trkpt>
      <trkpt lat="48.39379" lon="2.72082">
        <ele>111.17</ele>
        <time>2017-10-06T08:12:20Z</time>
      </trkpt>
      <trkpt lat="48.3937" lon="2.72082">
        <ele>112.61</ele>
        <time>2017-10-06T08:12:34Z</time>
      </trkpt>
      <trkpt lat="48.39366" lon="2.72093">
        <ele>113.57</ele>
        <time>2017-10-06T08:12:46Z</time>
      </trkpt>
      <trkpt lat="48.39366" lon="2.72098">
        <ele>113.57</ele>
        <time>2017-10-06T08:12:51Z</time>
      </trkpt>
      <trkpt lat="48.39362" lon="2.72109">
        <ele>112.13</ele>
        <time>2017-10-06T08:13:01Z</time>
      </trkpt>
      <trkpt lat="48.39365" lon="2.72124">
        <ele>109.73</ele>
        <time>2017-10-06T08:13:14Z</time>
      </trkpt>
      <trkpt lat="48.39364" lon="2.72143">
        <ele>107.81</ele>
        <time>2017-10-06T08:13:30Z</time>
      </trkpt>
      <trkpt lat="48.39365" lon="2.72161">
        <ele>106.36</ele>
        <time>2017-10-06T08:13:44Z</time>
      </trkpt>
      <trkpt lat="48.39357" lon="2.72166">
        <ele>103.48</ele>
        <time>2017-10-06T08:13:56Z</time>
      </trkpt>
      <trkpt lat="48.39356" lon="2.72174">
        <ele>101.08</ele>
        <time>2017-10-06T08:14:04Z</time>
      </trkpt>
      <trkpt lat="48.39357" lon="2.72183">
        <ele>101.56</ele>
        <time>2017-10-06T08:14:13Z</time>
      </trkpt>
      <trkpt lat="48.39359" lon="2.72185">
        <ele>103.48</ele>
        <time>2017-10-06T08:14:24Z</time>
      </trkpt>
      <trkpt lat="48.39363" lon="2.72189">
        <ele>104.44</ele>
        <time>2017-10-06T08:14:28Z</time>
      </trkpt>
      <trkpt lat="48.39372" lon="2.72194">
        <ele>103.96</ele>
        <time>2017-10-06T08:14:40Z</time>
      </trkpt>
      <trkpt lat="48.39377" lon="2.72202">
        <ele>103.96</ele>
        <time>2017-10-06T08:14:54Z</time>
      </trkpt>
      <trkpt lat="48.3938" lon="2.7221">
        <ele>106.84</ele>
        <time>2017-10-06T08:15:09Z</time>
      </trkpt>
      <trkpt lat="48.3938" lon="2.72214">
        <ele>108.29</ele>
        <time>2017-10-06T08:15:16Z</time>
      </trkpt>
      <trkpt lat="48.39383" lon="2.72225">
        <ele>108.29</ele>
        <time>2017-10-06T08:15:32Z</time>
      </trkpt>
      <trkpt lat="48.3938" lon="2.72236">
        <ele>109.25</ele>
        <time>2017-10-06T08:15:47Z</time>
      </trkpt>
      <trkpt lat="48.39375" lon="2.72236">
        <ele>110.21</ele>
        <time>2017-10-06T08:15:57Z</time>
      </trkpt>
      <trkpt lat="48.39369" lon="2.72239">
        <ele>112.13</ele>
        <time>2017-10-06T08:16:16Z</time>
      </trkpt>
      <trkpt lat="48.3937" lon="2.72241">
        <ele>112.61</ele>
        <time>2017-10-06T08:16:46Z</time>
      </trkpt>
      <trkpt lat="48.39367" lon="2.72242">
        <ele>112.13</ele>
        <time>2017-10-06T08:17:19Z</time>
      </trkpt>
      <trkpt lat="48.39367" lon="2.72244">
        <ele>113.09</ele>
        <time>2017-10-06T08:17:21Z</time>
      </trkpt>
      <trkpt lat="48.39369" lon="2.72254">
        <ele>115.01</ele>
        <time>2017-10-06T08:17:32Z</time>
      </trkpt>
      <trkpt lat="48.3937" lon="2.7226">
        <ele>115.01</ele>
        <time>2017-10-06T08:17:46Z</time>
      </trkpt>
      <trkpt lat="48.39364" lon="2.72258">
        <ele>115.5</ele>
        <time>2017-10-06T08:18:00Z</time>
      </trkpt>
      <trkpt lat="48.39357" lon="2.72254">
        <ele>115.98</ele>
        <time>2017-10-06T08:18:12Z</time>
      </trkpt>
      <trkpt lat="48.39357" lon="2.72259">
        <ele>117.9</ele>
        <time>2017-10-06T08:18:26Z</time>
      </trkpt>
      <trkpt lat="48.39356" lon="2.72263">
        <ele>118.86</ele>
        <time>2017-10-06T08:18:31Z</time>
      </trkpt>
      <trkpt lat="48.39356" lon="2.72266">
        <ele>119.34</ele>
        <time>2017-10-06T08:18:34Z</time>
      </trkpt>
      <trkpt lat="48.39355" lon="2.72269">
        <ele>119.34</ele>
        <time>2017-10-06T08:18:37Z</time>
      </trkpt>
      <trkpt lat="48.39354" lon="2.72282">
        <ele>120.3</ele>
        <time>2017-10-06T08:18:50Z</time>
      </trkpt>
      <trkpt lat="48.39353" lon="2.72287">
        <ele>121.74</ele>
        <time>2017-10-06T08:18:57Z</time>
      </trkpt>
      <trkpt lat="48.39356" lon="2.723">
        <ele>123.67</ele>
        <time>2017-10-06T08:19:09Z</time>
      </trkpt>
      <trkpt lat="48.39359" lon="2.72314">
        <ele>125.59</ele>
        <time>2017-10-06T08:19:22Z</time>
      </trkpt>
      <trkpt lat="48.39359" lon="2.72324">
        <ele>126.55</ele>
        <time>2017-10-06T08:19:32Z</time>
      </trkpt>
      <trkpt lat="48.39359" lon="2.72325">
        <ele>126.55</ele>
        <time>2017-10-06T08:19:34Z</time>
      </trkpt>
      <trkpt lat="48.39349" lon="2.7233">
        <ele>127.99</ele>
        <time>2017-10-06T08:19:46Z</time>
      </trkpt>
      <trkpt lat="48.39339" lon="2.72332">
        <ele>129.92</ele>
        <time>2017-10-06T08:19:59Z</time>
      </trkpt>
      <trkpt lat="48.39336" lon="2.72323">
        <ele>129.92</ele>
        <time>2017-10-06T08:20:30Z</time>
      </trkpt>
      <trkpt lat="48.39338" lon="2.72321">
        <ele>129.92</ele>
        <time>2017-10-06T08:21:01Z</time>
      </trkpt>
      <trkpt lat="48.39334" lon="2.72328">
        <ele>129.92</ele>
        <time>2017-10-06T08:21:17Z</time>
      </trkpt>
      <trkpt lat="48.3933" lon="2.72338">
        <ele>129.43</ele>
        <time>2017-10-06T08:21:27Z</time>
      </trkpt>
      <trkpt lat="48.3933" lon="2.72345">
        <ele>128.47</ele>
        <time>2017-10-06T08:21:39Z</time>
      </trkpt>
      <trkpt lat="48.39327" lon="2.72352">
        <ele>127.51</ele>
        <time>2017-10-06T08:21:54Z</time>
      </trkpt>
      <trkpt lat="48.39327" lon="2.72358">
        <ele>126.07</ele>
        <time>2017-10-06T08:22:00Z</time>
      </trkpt>
      <trkpt lat="48.39319" lon="2.72369">
        <ele>124.15</ele>
        <time>2017-10-06T08:22:13Z</time>
      </trkpt>
      <trkpt lat="48.39319" lon="2.72371">
        <ele>123.67</ele>
        <time>2017-10-06T08:22:16Z</time>
      </trkpt>
      <trkpt lat="48.39318" lon="2.72382">
        <ele>123.19</ele>
        <time>2017-10-06T08:22:28Z</time>
      </trkpt>
      <trkpt lat="48.39313" lon="2.72382">
        <ele>124.15</ele>
        <time>2017-10-06T08:22:38Z</time>
      </trkpt>
      <trkpt lat="48.39309" lon="2.72381">
        <ele>123.67</ele>
        <time>2017-10-06T08:22:43Z</time>
      </trkpt>
      <trkpt lat="48.39303" lon="2.72384">
        <ele>123.67</ele>
        <time>2017-10-06T08:22:56Z</time>
      </trkpt>
      <trkpt lat="48.39304" lon="2.72382">
        <ele>123.19</ele>
        <time>2017-10-06T08:23:14Z</time>
      </trkpt>
      <trkpt lat="48.39305" lon="2.72382">
        <ele>123.67</ele>
        <time>2017-10-06T08:23:26Z</time>
      </trkpt>
      <trkpt lat="48.39306" lon="2.72384">
        <ele>123.67</ele>
        <time>2017-10-06T08:23:31Z</time>
      </trkpt>
      <trkpt lat="48.39311" lon="2.72398">
        <ele>120.78</ele>
        <time>2017-10-06T08:23:45Z</time>
      </trkpt>
      <trkpt lat="48.39312" lon="2.72401">
        <ele>119.82</ele>
        <time>2017-10-06T08:23:49Z</time>
      </trkpt>
      <trkpt lat="48.39313" lon="2.72413">
        <ele>117.42</ele>
        <time>2017-10-06T08:24:00Z</time>
      </trkpt>
      <trkpt lat="48.39313" lon="2.72418">
        <ele>116.46</ele>
        <time>2017-10-06T08:24:04Z</time>
      </trkpt>
      <trkpt lat="48.39312" lon="2.72435">
        <ele>118.86</ele>
        <time>2017-10-06T08:24:17Z</time>
      </trkpt>
      <trkpt lat="48.39309" lon="2.72443">
        <ele>121.26</ele>
        <time>2017-10-06T08:24:30Z</time>
      </trkpt>
      <trkpt lat="48.39307" lon="2.72454">
        <ele>123.19</ele>
        <time>2017-10-06T08:24:41Z</time>
      </trkpt>
      <trkpt lat="48.39308" lon="2.72458">
        <ele>123.67</ele>
        <time>2017-10-06T08:24:45Z</time>
      </trkpt>
      <trkpt lat="48.39312" lon="2.72475">
        <ele>123.67</ele>
        <time>2017-10-06T08:24:58Z</time>
      </trkpt>
      <trkpt lat="48.39314" lon="2.72485">
        <ele>124.15</ele>
        <time>2017-10-06T08:25:11Z</time>
      </trkpt>
      <trkpt lat="48.39314" lon="2.72485">
        <ele>124.15</ele>
        <time>2017-10-06T08:25:28Z</time>
      </trkpt>
      <trkpt lat="48.3931" lon="2.72484">
        <ele>125.11</ele>
        <time>2017-10-06T08:25:40Z</time>
      </trkpt>
      <trkpt lat="48.39308" lon="2.72494">
        <ele>126.55</ele>
        <time>2017-10-06T08:25:54Z</time>
      </trkpt>
      <trkpt lat="48.39303" lon="2.72501">
        <ele>127.51</ele>
        <time>2017-10-06T08:26:04Z</time>
      </trkpt>
      <trkpt lat="48.39301" lon="2.72508">
        <ele>127.51</ele>
        <time>2017-10-06T08:26:18Z</time>
      </trkpt>
      <trkpt lat="48.393" lon="2.72508">
        <ele>127.99</ele>
        <time>2017-10-06T08:26:40Z</time>
      </trkpt>
      <trkpt lat="48.39299" lon="2.72504">
        <ele>128.47</ele>
        <time>2017-10-06T08:26:49Z</time>
      </trkpt>
      <trkpt lat="48.39297" lon="2.72504">
        <ele>128.95</ele>
        <time>2017-10-06T08:27:02Z</time>
      </trkpt>
      <trkpt lat="48.393" lon="2.72503">
        <ele>128.47</ele>
        <time>2017-10-06T08:27:31Z</time>
      </trkpt>
      <trkpt lat="48.39299" lon="2.72503">
        <ele>128.47</ele>
        <time>2017-10-06T08:27:48Z</time>
      </trkpt>
      <trkpt lat="48.39299" lon="2.72505">
        <ele>127.99</ele>
        <time>2017-10-06T08:28:13Z</time>
      </trkpt>
      <trkpt lat="48.393" lon="2.72499">
        <ele>127.51</ele>
        <time>2017-10-06T08:28:40Z</time>
      </trkpt>
      <trkpt lat="48.39298" lon="2.72498">
        <ele>127.99</ele>
        <time>2017-10-06T08:28:43Z</time>
      </trkpt>
      <trkpt lat="48.39295" lon="2.7249">
        <ele>128.47</ele>
        <time>2017-10-06T08:28:54Z</time>
      </trkpt>
      <trkpt lat="48.39293" lon="2.72481">
        <ele>126.07</ele>
        <time>2017-10-06T08:29:07Z</time>
      </trkpt>
      <trkpt lat="48.39293" lon="2.7248">
        <ele>125.59</ele>
        <time>2017-10-06T08:29:10Z</time>
      </trkpt>
      <trkpt lat="48.39289" lon="2.72476">
        <ele>125.11</ele>
        <time>2017-10-06T08:29:19Z</time>
      </trkpt>
      <trkpt lat="48.3929" lon="2.72463">
        <ele>122.71</ele>
        <time>2017-10-06T08:29:30Z</time>
      </trkpt>
      <trkpt lat="48.39295" lon="2.72448">
        <ele>121.26</ele>
        <time>2017-10-06T08:29:44Z</time>
      </trkpt>
      <trkpt lat="48.39296" lon="2.72426">
        <ele>120.3</ele>
        <time>2017-10-06T08:29:56Z</time>
      </trkpt>
      <trkpt lat="48.39298" lon="2.72404">
        <ele>120.3</ele>
        <time>2017-10-06T08:30:09Z</time>
      </trkpt>
      <trkpt lat="48.39299" lon="2.72394">
        <ele>120.78</ele>
        <time>2017-10-06T08:30:14Z</time>
      </trkpt>
      <trkpt lat="48.39304" lon="2.72383">
        <ele>122.22</ele>
        <time>2017-10-06T08:30:26Z</time>
      </trkpt>
      <trkpt lat="48.39309" lon="2.72375">
        <ele>122.71</ele>
        <time>2017-10-06T08:30:37Z</time>
      </trkpt>
      <trkpt lat="48.39312" lon="2.72371">
        <ele>124.15</ele>
        <time>2017-10-06T08:30:49Z</time>
      </trkpt>
      <trkpt lat="48.39313" lon="2.72365">
        <ele>125.11</ele>
        <time>2017-10-06T08:30:55Z</time>
      </trkpt>
      <trkpt lat="48.39303" lon="2.72365">
        <ele>122.71</ele>
        <time>2017-10-06T08:31:06Z</time>
      </trkpt>
      <trkpt lat="48.39302" lon="2.72364">
        <ele>122.71</ele>
        <time>2017-10-06T08:31:07Z</time>
      </trkpt>
      <trkpt lat="48.39301" lon="2.72361">
        <ele>122.22</ele>
        <time>2017-10-06T08:31:11Z</time>
      </trkpt>
      <trkpt lat="48.39301" lon="2.72353">
        <ele>122.71</ele>
        <time>2017-10-06T08:31:16Z</time>
      </trkpt>
      <trkpt lat="48.39302" lon="2.72347">
        <ele>122.71</ele>
        <time>2017-10-06T08:31:21Z</time>
      </trkpt>
      <trkpt lat="48.39303" lon="2.72342">
        <ele>122.71</ele>
        <time>2017-10-06T08:31:24Z</time>
      </trkpt>
      <trkpt lat="48.39305" lon="2.72335">
        <ele>122.22</ele>
        <time>2017-10-06T08:31:31Z</time>
      </trkpt>
      <trkpt lat="48.39311" lon="2.7232">
        <ele>122.71</ele>
        <time>2017-10-06T08:31:45Z</time>
      </trkpt>
      <trkpt lat="48.39315" lon="2.72307">
        <ele>121.74</ele>
        <time>2017-10-06T08:31:58Z</time>
      </trkpt>
      <trkpt lat="48.39317" lon="2.72288">
        <ele>120.78</ele>
        <time>2017-10-06T08:32:09Z</time>
      </trkpt>
      <trkpt lat="48.39317" lon="2.72277">
        <ele>118.86</ele>
        <time>2017-10-06T08:32:19Z</time>
      </trkpt>
      <trkpt lat="48.39312" lon="2.72274">
        <ele>117.42</ele>
        <time>2017-10-06T08:32:30Z</time>
      </trkpt>
      <trkpt lat="48.3931" lon="2.7228">
        <ele>117.9</ele>
        <time>2017-10-06T08:32:42Z</time>
      </trkpt>
      <trkpt lat="48.39312" lon="2.72282">
        <ele>118.38</ele>
        <time>2017-10-06T08:33:10Z</time>
      </trkpt>
      <trkpt lat="48.3931" lon="2.72284">
        <ele>117.9</ele>
        <time>2017-10-06T08:33:32Z</time>
      </trkpt>
      <trkpt lat="48.39308" lon="2.72272">
        <ele>116.94</ele>
        <time>2017-10-06T08:33:45Z</time>
      </trkpt>
      <trkpt lat="48.39308" lon="2.72271">
        <ele>116.94</ele>
        <time>2017-10-06T08:33:46Z</time>
      </trkpt>
      <trkpt lat="48.39306" lon="2.72263">
        <ele>115.98</ele>
        <time>2017-10-06T08:33:59Z</time>
      </trkpt>
      <trkpt lat="48.39301" lon="2.72254">
        <ele>113.57</ele>
        <time>2017-10-06T08:34:12Z</time>
      </trkpt>
      <trkpt lat="48.39301" lon="2.7225">
        <ele>113.09</ele>
        <time>2017-10-06T08:34:16Z</time>
      </trkpt>
      <trkpt lat="48.39295" lon="2.7225">
        <ele>112.61</ele>
        <time>2017-10-06T08:34:22Z</time>
      </trkpt>
      <trkpt lat="48.39292" lon="2.72242">
        <ele>112.13</ele>
        <time>2017-10-06T08:34:33Z</time>
      </trkpt>
      <trkpt lat="48.39292" lon="2.72237">
        <ele>112.13</ele>
        <time>2017-10-06T08:34:38Z</time>
      </trkpt>
      <trkpt lat="48.39289" lon="2.72225">
        <ele>111.17</ele>
        <time>2017-10-06T08:34:49Z</time>
      </trkpt>
      <trkpt lat="48.39288" lon="2.72211">
        <ele>113.09</ele>
        <time>2017-10-06T08:35:03Z</time>
      </trkpt>
      <trkpt lat="48.39291" lon="2.72198">
        <ele>114.05</ele>
        <time>2017-10-06T08:35:18Z</time>
      </trkpt>
      <trkpt lat="48.39293" lon="2.72199">
        <ele>114.05</ele>
        <time>2017-10-06T08:35:25Z</time>
      </trkpt>
      <trkpt lat="48.39298" lon="2.72185">
        <ele>115.98</ele>
        <time>2017-10-06T08:35:38Z</time>
      </trkpt>
      <trkpt lat="48.39299" lon="2.72169">
        <ele>117.42</ele>
        <time>2017-10-06T08:35:49Z</time>
      </trkpt>
      <trkpt lat="48.39299" lon="2.72169">
        <ele>117.42</ele>
        <time>2017-10-06T08:35:51Z</time>
      </trkpt>
      <trkpt lat="48.39301" lon="2.72148">
        <ele>118.86</ele>
        <time>2017-10-06T08:36:02Z</time>
      </trkpt>
      <trkpt lat="48.39306" lon="2.72127">
        <ele>119.82</ele>
        <time>2017-10-06T08:36:16Z</time>
      </trkpt>
      <trkpt lat="48.39308" lon="2.72112">
        <ele>120.3</ele>
        <time>2017-10-06T08:36:29Z</time>
      </trkpt>
      <trkpt lat="48.39309" lon="2.72101">
        <ele>120.3</ele>
        <time>2017-10-06T08:36:43Z</time>
      </trkpt>
      <trkpt lat="48.39309" lon="2.72085">
        <ele>119.34</ele>
        <time>2017-10-06T08:36:56Z</time>
      </trkpt>
      <trkpt lat="48.3931" lon="2.72078">
        <ele>118.38</ele>
        <time>2017-10-06T08:37:05Z</time>
      </trkpt>
      <trkpt lat="48.39309" lon="2.72068">
        <ele>117.9</ele>
        <time>2017-10-06T08:37:12Z</time>
      </trkpt>
      <trkpt lat="48.39308" lon="2.72052">
        <ele>115.5</ele>
        <time>2017-10-06T08:37:25Z</time>
      </trkpt>
      <trkpt lat="48.39307" lon="2.72052">
        <ele>115.5</ele>
        <time>2017-10-06T08:37:26Z</time>
      </trkpt>
      <trkpt lat="48.39306" lon="2.72046">
        <ele>115.01</ele>
        <time>2017-10-06T08:37:30Z</time>
      </trkpt>
      <trkpt lat="48.39312" lon="2.72034">
        <ele>113.57</ele>
        <time>2017-10-06T08:37:40Z</time>
      </trkpt>
      <trkpt lat="48.39317" lon="2.72024">
        <ele>113.57</ele>
        <time>2017-10-06T08:37:56Z</time>
      </trkpt>
      <trkpt lat="48.39323" lon="2.72016">
        <ele>111.65</ele>
        <time>2017-10-06T08:38:09Z</time>
      </trkpt>
      <trkpt lat="48.39329" lon="2.71996">
        <ele>111.65</ele>
        <time>2017-10-06T08:38:25Z</time>
      </trkpt>
      <trkpt lat="48.39331" lon="2.71983">
        <ele>112.61</ele>
        <time>2017-10-06T08:38:35Z</time>
      </trkpt>
      <trkpt lat="48.39324" lon="2.71972">
        <ele>114.53</ele>
        <time>2017-10-06T08:38:45Z</time>
      </trkpt>
      <trkpt lat="48.39319" lon="2.71965">
        <ele>115.5</ele>
        <time>2017-10-06T08:38:54Z</time>
      </trkpt>
      <trkpt lat="48.39312" lon="2.71958">
        <ele>115.5</ele>
        <time>2017-10-06T08:39:00Z</time>
      </trkpt>
      <trkpt lat="48.3931" lon="2.71939">
        <ele>114.53</ele>
        <time>2017-10-06T08:39:12Z</time>
      </trkpt>
      <trkpt lat="48.3931" lon="2.71934">
        <ele>114.05</ele>
        <time>2017-10-06T08:39:16Z</time>
      </trkpt>
      <trkpt lat="48.39309" lon="2.71932">
        <ele>114.53</ele>
        <time>2017-10-06T08:39:17Z</time>
      </trkpt>
      <trkpt lat="48.39305" lon="2.71921">
        <ele>112.61</ele>
        <time>2017-10-06T08:39:27Z</time>
      </trkpt>
      <trkpt lat="48.393" lon="2.71909">
        <ele>111.65</ele>
        <time>2017-10-06T08:39:38Z</time>
      </trkpt>
      <trkpt lat="48.39297" lon="2.719">
        <ele>111.17</ele>
        <time>2017-10-06T08:39:42Z</time>
      </trkpt>
      <trkpt lat="48.39297" lon="2.71893">
        <ele>110.69</ele>
        <time>2017-10-06T08:39:46Z</time>
      </trkpt>
      <trkpt lat="48.39296" lon="2.71891">
        <ele>111.17</ele>
        <time>2017-10-06T08:39:47Z</time>
      </trkpt>
      <trkpt lat="48.39287" lon="2.71878">
        <ele>111.65</ele>
        <time>2017-10-06T08:40:00Z</time>
      </trkpt>
      <trkpt lat="48.39288" lon="2.71866">
        <ele>113.57</ele>
        <time>2017-10-06T08:40:11Z</time>
      </trkpt>
      <trkpt lat="48.39287" lon="2.71841">
        <ele>115.98</ele>
        <time>2017-10-06T08:40:26Z</time>
      </trkpt>
      <trkpt lat="48.39292" lon="2.71823">
        <ele>116.46</ele>
        <time>2017-10-06T08:40:38Z</time>
      </trkpt>
      <trkpt lat="48.39291" lon="2.71808">
        <ele>117.42</ele>
        <time>2017-10-06T08:40:50Z</time>
      </trkpt>
      <trkpt lat="48.39293" lon="2.71801">
        <ele>116.94</ele>
        <time>2017-10-06T08:40:55Z</time>
      </trkpt>
      <trkpt lat="48.39297" lon="2.71793">
        <ele>117.42</ele>
        <time>2017-10-06T08:41:06Z</time>
      </trkpt>
      <trkpt lat="48.39302" lon="2.71789">
        <ele>117.42</ele>
        <time>2017-10-06T08:41:32Z</time>
      </trkpt>
      <trkpt lat="48.39306" lon="2.71792">
        <ele>117.42</ele>
        <time>2017-10-06T08:42:01Z</time>
      </trkpt>
      <trkpt lat="48.39312" lon="2.71793">
        <ele>116.94</ele>
        <time>2017-10-06T08:42:36Z</time>
      </trkpt>
      <trkpt lat="48.39305" lon="2.71789">
        <ele>115.98</ele>
        <time>2017-10-06T08:42:55Z</time>
      </trkpt>
      <trkpt lat="48.39298" lon="2.71776">
        <ele>116.46</ele>
        <time>2017-10-06T08:43:07Z</time>
      </trkpt>
      <trkpt lat="48.39294" lon="2.71769">
        <ele>116.94</ele>
        <time>2017-10-06T08:43:12Z</time>
      </trkpt>
      <trkpt lat="48.39285" lon="2.71758">
        <ele>118.86</ele>
        <time>2017-10-06T08:43:24Z</time>
      </trkpt>
      <trkpt lat="48.39279" lon="2.71751">
        <ele>120.3</ele>
        <time>2017-10-06T08:43:35Z</time>
      </trkpt>
      <trkpt lat="48.39279" lon="2.71742">
        <ele>121.74</ele>
        <time>2017-10-06T08:43:49Z</time>
      </trkpt>
      <trkpt lat="48.39279" lon="2.71731">
        <ele>123.67</ele>
        <time>2017-10-06T08:44:00Z</time>
      </trkpt>
      <trkpt lat="48.39276" lon="2.71725">
        <ele>124.63</ele>
        <time>2017-10-06T08:44:09Z</time>
      </trkpt>
      <trkpt lat="48.39273" lon="2.71715">
        <ele>126.55</ele>
        <time>2017-10-06T08:44:22Z</time>
      </trkpt>
      <trkpt lat="48.39271" lon="2.71705">
        <ele>126.55</ele>
        <time>2017-10-06T08:44:34Z</time>
      </trkpt>
      <trkpt lat="48.39276" lon="2.71699">
        <ele>127.03</ele>
        <time>2017-10-06T08:44:47Z</time>
      </trkpt>
      <trkpt lat="48.39277" lon="2.71696">
        <ele>126.55</ele>
        <time>2017-10-06T08:44:49Z</time>
      </trkpt>
      <trkpt lat="48.39279" lon="2.71686">
        <ele>127.51</ele>
        <time>2017-10-06T08:44:58Z</time>
      </trkpt>
      <trkpt lat="48.39281" lon="2.71675">
        <ele>125.59</ele>
        <time>2017-10-06T08:45:12Z</time>
      </trkpt>
      <trkpt lat="48.3928" lon="2.71673">
        <ele>126.55</ele>
        <time>2017-10-06T08:45:29Z</time>
      </trkpt>
      <trkpt lat="48.39279" lon="2.7168">
        <ele>126.55</ele>
        <time>2017-10-06T08:46:05Z</time>
      </trkpt>
      <trkpt lat="48.39282" lon="2.71674">
        <ele>126.55</ele>
        <time>2017-10-06T08:46:36Z</time>
      </trkpt>
      <trkpt lat="48.39282" lon="2.7167">
        <ele>125.59</ele>
        <time>2017-10-06T08:46:48Z</time>
      </trkpt>
      <trkpt lat="48.39283" lon="2.71668">
        <ele>125.59</ele>
        <time>2017-10-06T08:46:50Z</time>
      </trkpt>
      <trkpt lat="48.39285" lon="2.71664">
        <ele>124.15</ele>
        <time>2017-10-06T08:46:56Z</time>
      </trkpt>
      <trkpt lat="48.39284" lon="2.7166">
        <ele>123.19</ele>
        <time>2017-10-06T08:47:01Z</time>
      </trkpt>
      <trkpt lat="48.39281" lon="2.71653">
        <ele>121.26</ele>
        <time>2017-10-06T08:47:12Z</time>
      </trkpt>
      <trkpt lat="48.39285" lon="2.71643">
        <ele>119.82</ele>
        <time>2017-10-06T08:47:22Z</time>
      </trkpt>
      <trkpt lat="48.39293" lon="2.71641">
        <ele>118.38</ele>
        <time>2017-10-06T08:47:34Z</time>
      </trkpt>
      <trkpt lat="48.39295" lon="2.71641">
        <ele>117.9</ele>
        <time>2017-10-06T08:47:37Z</time>
      </trkpt>
      <trkpt lat="48.39298" lon="2.7164">
        <ele>117.42</ele>
        <time>2017-10-06T08:47:41Z</time>
      </trkpt>
      <trkpt lat="48.39302" lon="2.71631">
        <ele>116.46</ele>
        <time>2017-10-06T08:47:50Z</time>
      </trkpt>
      <trkpt lat="48.39299" lon="2.71622">
        <ele>115.5</ele>
        <time>2017-10-06T08:47:59Z</time>
      </trkpt>
      <trkpt lat="48.39294" lon="2.71616">
        <ele>114.05</ele>
        <time>2017-10-06T08:48:06Z</time>
      </trkpt>
      <trkpt lat="48.39284" lon="2.71607">
        <ele>112.61</ele>
        <time>2017-10-06T08:48:20Z</time>
      </trkpt>
      <trkpt lat="48.39275" lon="2.71602">
        <ele>112.13</ele>
        <time>2017-10-06T08:48:31Z</time>
      </trkpt>
      <trkpt lat="48.39269" lon="2.71598">
        <ele>112.61</ele>
        <time>2017-10-06T08:48:46Z</time>
      </trkpt>
      <trkpt lat="48.39268" lon="2.71589">
        <ele>111.17</ele>
        <time>2017-10-06T08:49:03Z</time>
      </trkpt>
      <trkpt lat="48.3927" lon="2.71584">
        <ele>111.17</ele>
        <time>2017-10-06T08:49:24Z</time>
      </trkpt>
      <trkpt lat="48.39272" lon="2.7158">
        <ele>110.21</ele>
        <time>2017-10-06T08:49:38Z</time>
      </trkpt>
      <trkpt lat="48.39272" lon="2.7158">
        <ele>110.21</ele>
        <time>2017-10-06T08:49:40Z</time>
      </trkpt>
      <trkpt lat="48.3927" lon="2.71572">
        <ele>109.73</ele>
        <time>2017-10-06T08:49:49Z</time>
      </trkpt>
      <trkpt lat="48.39263" lon="2.71567">
        <ele>107.81</ele>
        <time>2017-10-06T08:50:02Z</time>
      </trkpt>
      <trkpt lat="48.39259" lon="2.71564">
        <ele>107.81</ele>
        <time>2017-10-06T08:50:17Z</time>
      </trkpt>
      <trkpt lat="48.39257" lon="2.71563">
        <ele>107.32</ele>
        <time>2017-10-06T08:50:34Z</time>
      </trkpt>
      <trkpt lat="48.39255" lon="2.71564">
        <ele>107.81</ele>
        <time>2017-10-06T08:50:42Z</time>
      </trkpt>
      <trkpt lat="48.39255" lon="2.71555">
        <ele>106.36</ele>
        <time>2017-10-06T08:50:55Z</time>
      </trkpt>
      <trkpt lat="48.3926" lon="2.71546">
        <ele>106.36</ele>
        <time>2017-10-06T08:51:05Z</time>
      </trkpt>
      <trkpt lat="48.39263" lon="2.71544">
        <ele>106.84</ele>
        <time>2017-10-06T08:51:09Z</time>
      </trkpt>
      <trkpt lat="48.3927" lon="2.7154">
        <ele>106.84</ele>
        <time>2017-10-06T08:51:20Z</time>
      </trkpt>
      <trkpt lat="48.39276" lon="2.71524">
        <ele>105.88</ele>
        <time>2017-10-06T08:51:33Z</time>
      </trkpt>
      <trkpt lat="48.39277" lon="2.71521">
        <ele>104.92</ele>
        <time>2017-10-06T08:51:37Z</time>
      </trkpt>
      <trkpt lat="48.39279" lon="2.71511">
        <ele>104.44</ele>
        <time>2017-10-06T08:51:48Z</time>
      </trkpt>
      <trkpt lat="48.39284" lon="2.71498">
        <ele>102.52</ele>
        <time>2017-10-06T08:52:01Z</time>
      </trkpt>
      <trkpt lat="48.39289" lon="2.71484">
        <ele>102.04</ele>
        <time>2017-10-06T08:52:09Z</time>
      </trkpt>
      <trkpt lat="48.3929" lon="2.71475">
        <ele>102.04</ele>
        <time>2017-10-06T08:52:15Z</time>
      </trkpt>
      <trkpt lat="48.39285" lon="2.71467">
        <ele>103</ele>
        <time>2017-10-06T08:52:27Z</time>
      </trkpt>
      <trkpt lat="48.39283" lon="2.71463">
        <ele>102.04</ele>
        <time>2017-10-06T08:52:33Z</time>
      </trkpt>
      <trkpt lat="48.3928" lon="2.71457">
        <ele>101.56</ele>
        <time>2017-10-06T08:52:38Z</time>
      </trkpt>
      <trkpt lat="48.3928" lon="2.71449">
        <ele>102.04</ele>
        <time>2017-10-06T08:52:51Z</time>
      </trkpt>
      <trkpt lat="48.3928" lon="2.71448">
        <ele>102.04</ele>
        <time>2017-10-06T08:52:52Z</time>
      </trkpt>
      <trkpt lat="48.39281" lon="2.7144">
        <ele>101.56</ele>
        <time>2017-10-06T08:53:04Z</time>
      </trkpt>
      <trkpt lat="48.39282" lon="2.71432">
        <ele>101.08</ele>
        <time>2017-10-06T08:53:13Z</time>
      </trkpt>
      <trkpt lat="48.39283" lon="2.71432">
        <ele>101.08</ele>
        <time>2017-10-06T08:53:15Z</time>
      </trkpt>
      <trkpt lat="48.39288" lon="2.7143">
        <ele>101.56</ele>
        <time>2017-10-06T08:53:27Z</time>
      </trkpt>
      <trkpt lat="48.39293" lon="2.71424">
        <ele>100.6</ele>
        <time>2017-10-06T08:53:40Z</time>
      </trkpt>
      <trkpt lat="48.39298" lon="2.71435">
        <ele>101.08</ele>
        <time>2017-10-06T08:53:53Z</time>
      </trkpt>
      <trkpt lat="48.39307" lon="2.7144">
        <ele>101.56</ele>
        <time>2017-10-06T08:54:05Z</time>
      </trkpt>
      <trkpt lat="48.39319" lon="2.71445">
        <ele>102.52</ele>
        <time>2017-10-06T08:54:17Z</time>
      </trkpt>
      <trkpt lat="48.39333" lon="2.71445">
        <ele>102.04</ele>
        <time>2017-10-06T08:54:26Z</time>
      </trkpt>
      <trkpt lat="48.39337" lon="2.71438">
        <ele>102.52</ele>
        <time>2017-10-06T08:54:34Z</time>
      </trkpt>
      <trkpt lat="48.39337" lon="2.71423">
        <ele>101.56</ele>
        <time>2017-10-06T08:54:48Z</time>
      </trkpt>
      <trkpt lat="48.39343" lon="2.71416">
        <ele>102.04</ele>
        <time>2017-10-06T08:55:07Z</time>
      </trkpt>
      <trkpt lat="48.39339" lon="2.71404">
        <ele>102.04</ele>
        <time>2017-10-06T08:55:29Z</time>
      </trkpt>
      <trkpt lat="48.39338" lon="2.71388">
        <ele>102.52</ele>
        <time>2017-10-06T08:55:40Z</time>
      </trkpt>
      <trkpt lat="48.39335" lon="2.71377">
        <ele>103.96</ele>
        <time>2017-10-06T08:55:54Z</time>
      </trkpt>
      <trkpt lat="48.39336" lon="2.71371">
        <ele>104.92</ele>
        <time>2017-10-06T08:56:10Z</time>
      </trkpt>
      <trkpt lat="48.39341" lon="2.7135">
        <ele>105.4</ele>
        <time>2017-10-06T08:56:37Z</time>
      </trkpt>
      <trkpt lat="48.39339" lon="2.71347">
        <ele>104.92</ele>
        <time>2017-10-06T08:57:10Z</time>
      </trkpt>
      <trkpt lat="48.39331" lon="2.71351">
        <ele>104.92</ele>
        <time>2017-10-06T08:57:33Z</time>
      </trkpt>
      <trkpt lat="48.39328" lon="2.71347">
        <ele>104.44</ele>
        <time>2017-10-06T08:57:39Z</time>
      </trkpt>
      <trkpt lat="48.39316" lon="2.71339">
        <ele>102.52</ele>
        <time>2017-10-06T08:57:55Z</time>
      </trkpt>
      <trkpt lat="48.39316" lon="2.71339">
        <ele>102.04</ele>
        <time>2017-10-06T08:57:56Z</time>
      </trkpt>
      <trkpt lat="48.39311" lon="2.71333">
        <ele>101.56</ele>
        <time>2017-10-06T08:58:00Z</time>
      </trkpt>
      <trkpt lat="48.39308" lon="2.71332">
        <ele>100.6</ele>
        <time>2017-10-06T08:58:03Z</time>
      </trkpt>
      <trkpt lat="48.39298" lon="2.71327">
        <ele>99.63</ele>
        <time>2017-10-06T08:58:12Z</time>
      </trkpt>
      <trkpt lat="48.39291" lon="2.71327">
        <ele>99.63</ele>
        <time>2017-10-06T08:58:17Z</time>
      </trkpt>
      <trkpt lat="48.39279" lon="2.7132">
        <ele>97.71</ele>
        <time>2017-10-06T08:58:30Z</time>
      </trkpt>
      <trkpt lat="48.39276" lon="2.7132">
        <ele>97.23</ele>
        <time>2017-10-06T08:58:34Z</time>
      </trkpt>
      <trkpt lat="48.39274" lon="2.71321">
        <ele>96.75</ele>
        <time>2017-10-06T08:58:35Z</time>
      </trkpt>
      <trkpt lat="48.39273" lon="2.71322">
        <ele>96.75</ele>
        <time>2017-10-06T08:58:36Z</time>
      </trkpt>
      <trkpt lat="48.39264" lon="2.71329">
        <ele>95.79</ele>
        <time>2017-10-06T08:58:48Z</time>
      </trkpt>
      <trkpt lat="48.39253" lon="2.71329">
        <ele>94.83</ele>
        <time>2017-10-06T08:59:01Z</time>
      </trkpt>
      <trkpt lat="48.39248" lon="2.71332">
        <ele>93.87</ele>
        <time>2017-10-06T08:59:08Z</time>
      </trkpt>
      <trkpt lat="48.39235" lon="2.71338">
        <ele>92.42</ele>
        <time>2017-10-06T08:59:21Z</time>
      </trkpt>
      <trkpt lat="48.39226" lon="2.71339">
        <ele>91.46</ele>
        <time>2017-10-06T08:59:30Z</time>
      </trkpt>
      <trkpt lat="48.39225" lon="2.7134">
        <ele>91.46</ele>
        <time>2017-10-06T08:59:31Z</time>
      </trkpt>
      <trkpt lat="48.39223" lon="2.71342">
        <ele>90.98</ele>
        <time>2017-10-06T08:59:32Z</time>
      </trkpt>
      <trkpt lat="48.39204" lon="2.71353">
        <ele>90.5</ele>
        <time>2017-10-06T08:59:44Z</time>
      </trkpt>
      <trkpt lat="48.39203" lon="2.71353">
        <ele>90.5</ele>
        <time>2017-10-06T08:59:45Z</time>
      </trkpt>
      <trkpt lat="48.39202" lon="2.71354">
        <ele>90.5</ele>
        <time>2017-10-06T08:59:46Z</time>
      </trkpt>
      <trkpt lat="48.392" lon="2.71354">
        <ele>90.02</ele>
        <time>2017-10-06T08:59:47Z</time>
      </trkpt>
      <trkpt lat="48.39191" lon="2.71353">
        <ele>90.5</ele>
        <time>2017-10-06T09:00:01Z</time>
      </trkpt>
      <trkpt lat="48.3918" lon="2.71355">
        <ele>90.02</ele>
        <time>2017-10-06T09:00:12Z</time>
      </trkpt>
      <trkpt lat="48.39176" lon="2.71357">
        <ele>90.02</ele>
        <time>2017-10-06T09:00:17Z</time>
      </trkpt>
      <trkpt lat="48.39175" lon="2.71357">
        <ele>90.02</ele>
        <time>2017-10-06T09:00:18Z</time>
      </trkpt>
      <trkpt lat="48.39172" lon="2.7136">
        <ele>89.06</ele>
        <time>2017-10-06T09:00:23Z</time>
      </trkpt>
      <trkpt lat="48.39168" lon="2.71358">
        <ele>89.06</ele>
        <time>2017-10-06T09:00:29Z</time>
      </trkpt>
      <trkpt lat="48.39167" lon="2.71358">
        <ele>89.06</ele>
        <time>2017-10-06T09:00:30Z</time>
      </trkpt>
      <trkpt lat="48.39166" lon="2.71359">
        <ele>88.58</ele>
        <time>2017-10-06T09:00:31Z</time>
      </trkpt>
      <trkpt lat="48.39164" lon="2.7136">
        <ele>88.58</ele>
        <time>2017-10-06T09:00:32Z</time>
      </trkpt>
      <trkpt lat="48.39163" lon="2.7136">
        <ele>88.58</ele>
        <time>2017-10-06T09:00:33Z</time>
      </trkpt>
      <trkpt lat="48.39161" lon="2.7136">
        <ele>88.58</ele>
        <time>2017-10-06T09:00:34Z</time>
      </trkpt>
      <trkpt lat="48.39148" lon="2.71361">
        <ele>89.06</ele>
        <time>2017-10-06T09:00:46Z</time>
      </trkpt>
      <trkpt lat="48.39147" lon="2.71361">
        <ele>89.06</ele>
        <time>2017-10-06T09:01:09Z</time>
      </trkpt>
      <trkpt lat="48.39143" lon="2.71361">
        <ele>89.06</ele>
        <time>2017-10-06T09:01:26Z</time>
      </trkpt>
      <trkpt lat="48.39142" lon="2.71362">
        <ele>88.1</ele>
        <time>2017-10-06T09:01:27Z</time>
      </trkpt>
      <trkpt lat="48.3914" lon="2.71362">
        <ele>88.1</ele>
        <time>2017-10-06T09:01:28Z</time>
      </trkpt>
      <trkpt lat="48.39138" lon="2.71362">
        <ele>88.58</ele>
        <time>2017-10-06T09:01:29Z</time>
      </trkpt>
      <trkpt lat="48.39133" lon="2.7136">
        <ele>89.06</ele>
        <time>2017-10-06T09:01:35Z</time>
      </trkpt>
      <trkpt lat="48.39131" lon="2.71359">
        <ele>88.58</ele>
        <time>2017-10-06T09:01:36Z</time>
      </trkpt>
      <trkpt lat="48.39128" lon="2.7136">
        <ele>89.54</ele>
        <time>2017-10-06T09:01:38Z</time>
      </trkpt>
      <trkpt lat="48.39122" lon="2.7136">
        <ele>89.54</ele>
        <time>2017-10-06T09:01:44Z</time>
      </trkpt>
      <trkpt lat="48.39114" lon="2.71363">
        <ele>90.02</ele>
        <time>2017-10-06T09:01:58Z</time>
      </trkpt>
      <trkpt lat="48.39112" lon="2.71366">
        <ele>89.54</ele>
        <time>2017-10-06T09:02:07Z</time>
      </trkpt>
      <trkpt lat="48.39108" lon="2.71366">
        <ele>90.02</ele>
        <time>2017-10-06T09:02:17Z</time>
      </trkpt>
      <trkpt lat="48.39103" lon="2.71365">
        <ele>90.02</ele>
        <time>2017-10-06T09:02:28Z</time>
      </trkpt>
      <trkpt lat="48.39096" lon="2.71363">
        <ele>90.98</ele>
        <time>2017-10-06T09:02:34Z</time>
      </trkpt>
      <trkpt lat="48.39095" lon="2.71363">
        <ele>90.98</ele>
        <time>2017-10-06T09:02:35Z</time>
      </trkpt>
      <trkpt lat="48.39093" lon="2.71362">
        <ele>90.98</ele>
        <time>2017-10-06T09:02:36Z</time>
      </trkpt>
      <trkpt lat="48.39081" lon="2.71361">
        <ele>92.42</ele>
        <time>2017-10-06T09:02:47Z</time>
      </trkpt>
      <trkpt lat="48.39066" lon="2.71361">
        <ele>92.9</ele>
        <time>2017-10-06T09:02:58Z</time>
      </trkpt>
      <trkpt lat="48.39065" lon="2.71361">
        <ele>92.9</ele>
        <time>2017-10-06T09:02:59Z</time>
      </trkpt>
      <trkpt lat="48.39056" lon="2.71363">
        <ele>92.9</ele>
        <time>2017-10-06T09:03:06Z</time>
      </trkpt>
      <trkpt lat="48.3905" lon="2.71364">
        <ele>92.42</ele>
        <time>2017-10-06T09:03:13Z</time>
      </trkpt>
      <trkpt lat="48.39049" lon="2.71363">
        <ele>92.42</ele>
        <time>2017-10-06T09:03:14Z</time>
      </trkpt>
      <trkpt lat="48.39047" lon="2.71363">
        <ele>91.94</ele>
        <time>2017-10-06T09:03:15Z</time>
      </trkpt>
      <trkpt lat="48.39046" lon="2.71364">
        <ele>92.42</ele>
        <time>2017-10-06T09:03:16Z</time>
      </trkpt>
      <trkpt lat="48.39035" lon="2.71365">
        <ele>91.94</ele>
        <time>2017-10-06T09:03:27Z</time>
      </trkpt>
      <trkpt lat="48.39033" lon="2.71365">
        <ele>91.94</ele>
        <time>2017-10-06T09:03:29Z</time>
      </trkpt>
      <trkpt lat="48.39031" lon="2.71365">
        <ele>90.98</ele>
        <time>2017-10-06T09:03:30Z</time>
      </trkpt>
      <trkpt lat="48.39029" lon="2.71364">
        <ele>91.46</ele>
        <time>2017-10-06T09:03:31Z</time>
      </trkpt>
      <trkpt lat="48.39022" lon="2.71365">
        <ele>91.94</ele>
        <time>2017-10-06T09:03:37Z</time>
      </trkpt>
      <trkpt lat="48.39021" lon="2.71365">
        <ele>91.94</ele>
        <time>2017-10-06T09:03:38Z</time>
      </trkpt>
      <trkpt lat="48.39007" lon="2.71366">
        <ele>91.94</ele>
        <time>2017-10-06T09:03:49Z</time>
      </trkpt>
      <trkpt lat="48.39006" lon="2.71366">
        <ele>91.94</ele>
        <time>2017-10-06T09:03:50Z</time>
      </trkpt>
      <trkpt lat="48.39004" lon="2.71366">
        <ele>92.42</ele>
        <time>2017-10-06T09:03:51Z</time>
      </trkpt>
      <trkpt lat="48.39001" lon="2.71366">
        <ele>92.9</ele>
        <time>2017-10-06T09:03:55Z</time>
      </trkpt>
      <trkpt lat="48.38999" lon="2.71366">
        <ele>92.42</ele>
        <time>2017-10-06T09:03:56Z</time>
      </trkpt>
      <trkpt lat="48.38995" lon="2.71368">
        <ele>93.39</ele>
        <time>2017-10-06T09:04:00Z</time>
      </trkpt>
      <trkpt lat="48.38988" lon="2.71368">
        <ele>93.87</ele>
        <time>2017-10-06T09:04:09Z</time>
      </trkpt>
      <trkpt lat="48.38977" lon="2.71367">
        <ele>93.87</ele>
        <time>2017-10-06T09:04:20Z</time>
      </trkpt>
      <trkpt lat="48.38975" lon="2.71368">
        <ele>93.87</ele>
        <time>2017-10-06T09:04:21Z</time>
      </trkpt>
      <trkpt lat="48.38974" lon="2.71368">
        <ele>93.87</ele>
        <time>2017-10-06T09:04:22Z</time>
      </trkpt>
      <trkpt lat="48.38958" lon="2.71368">
        <ele>92.9</ele>
        <time>2017-10-06T09:04:32Z</time>
      </trkpt>
      <trkpt lat="48.38948" lon="2.7137">
        <ele>92.42</ele>
        <time>2017-10-06T09:04:44Z</time>
      </trkpt>
      <trkpt lat="48.38935" lon="2.71371">
        <ele>92.42</ele>
        <time>2017-10-06T09:04:53Z</time>
      </trkpt>
      <trkpt lat="48.38923" lon="2.71373">
        <ele>91.94</ele>
        <time>2017-10-06T09:05:05Z</time>
      </trkpt>
      <trkpt lat="48.38919" lon="2.71372">
        <ele>92.42</ele>
        <time>2017-10-06T09:05:17Z</time>
      </trkpt>
      <trkpt lat="48.3891" lon="2.71369">
        <ele>91.94</ele>
        <time>2017-10-06T09:05:37Z</time>
      </trkpt>
      <trkpt lat="48.38916" lon="2.71375">
        <ele>91.94</ele>
        <time>2017-10-06T09:05:43Z</time>
      </trkpt>
      <trkpt lat="48.38918" lon="2.71375">
        <ele>91.94</ele>
        <time>2017-10-06T09:05:44Z</time>
      </trkpt>
      <trkpt lat="48.38919" lon="2.71375">
        <ele>91.46</ele>
        <time>2017-10-06T09:05:45Z</time>
      </trkpt>
      <trkpt lat="48.3892" lon="2.71375">
        <ele>91.46</ele>
        <time>2017-10-06T09:05:46Z</time>
      </trkpt>
      <trkpt lat="48.38924" lon="2.71374">
        <ele>91.94</ele>
        <time>2017-10-06T09:05:58Z</time>
      </trkpt>
      <trkpt lat="48.38926" lon="2.71368">
        <ele>92.42</ele>
        <time>2017-10-06T09:06:09Z</time>
      </trkpt>
      <trkpt lat="48.3893" lon="2.71358">
        <ele>93.39</ele>
        <time>2017-10-06T09:06:19Z</time>
      </trkpt>
      <trkpt lat="48.38935" lon="2.71358">
        <ele>93.39</ele>
        <time>2017-10-06T09:06:24Z</time>
      </trkpt>
      <trkpt lat="48.38938" lon="2.71355">
        <ele>93.39</ele>
        <time>2017-10-06T09:06:29Z</time>
      </trkpt>
      <trkpt lat="48.38941" lon="2.71351">
        <ele>94.35</ele>
        <time>2017-10-06T09:06:33Z</time>
      </trkpt>
      <trkpt lat="48.38949" lon="2.7134">
        <ele>95.31</ele>
        <time>2017-10-06T09:06:43Z</time>
      </trkpt>
      <trkpt lat="48.3896" lon="2.7133">
        <ele>95.79</ele>
        <time>2017-10-06T09:06:55Z</time>
      </trkpt>
      <trkpt lat="48.38962" lon="2.71327">
        <ele>96.27</ele>
        <time>2017-10-06T09:06:58Z</time>
      </trkpt>
      <trkpt lat="48.38963" lon="2.71325">
        <ele>96.27</ele>
        <time>2017-10-06T09:06:59Z</time>
      </trkpt>
      <trkpt lat="48.38971" lon="2.71315">
        <ele>97.23</ele>
        <time>2017-10-06T09:07:12Z</time>
      </trkpt>
      <trkpt lat="48.38984" lon="2.71302">
        <ele>96.75</ele>
        <time>2017-10-06T09:07:24Z</time>
      </trkpt>
      <trkpt lat="48.38986" lon="2.713">
        <ele>96.75</ele>
        <time>2017-10-06T09:07:26Z</time>
      </trkpt>
      <trkpt lat="48.38989" lon="2.71298">
        <ele>96.27</ele>
        <time>2017-10-06T09:07:30Z</time>
      </trkpt>
      <trkpt lat="48.3899" lon="2.71297">
        <ele>96.27</ele>
        <time>2017-10-06T09:07:31Z</time>
      </trkpt>
      <trkpt lat="48.38995" lon="2.71292">
        <ele>96.27</ele>
        <time>2017-10-06T09:07:37Z</time>
      </trkpt>
      <trkpt lat="48.38996" lon="2.7129">
        <ele>96.27</ele>
        <time>2017-10-06T09:07:38Z</time>
      </trkpt>
      <trkpt lat="48.39005" lon="2.71277">
        <ele>97.23</ele>
        <time>2017-10-06T09:07:49Z</time>
      </trkpt>
      <trkpt lat="48.39014" lon="2.71269">
        <ele>98.67</ele>
        <time>2017-10-06T09:07:59Z</time>
      </trkpt>
      <trkpt lat="48.39017" lon="2.71269">
        <ele>97.71</ele>
        <time>2017-10-06T09:08:06Z</time>
      </trkpt>
      <trkpt lat="48.3902" lon="2.71269">
        <ele>97.71</ele>
        <time>2017-10-06T09:08:09Z</time>
      </trkpt>
      <trkpt lat="48.39022" lon="2.71268">
        <ele>97.71</ele>
        <time>2017-10-06T09:08:11Z</time>
      </trkpt>
      <trkpt lat="48.39025" lon="2.71252">
        <ele>97.71</ele>
        <time>2017-10-06T09:08:21Z</time>
      </trkpt>
      <trkpt lat="48.39026" lon="2.71248">
        <ele>97.71</ele>
        <time>2017-10-06T09:08:24Z</time>
      </trkpt>
      <trkpt lat="48.39026" lon="2.71246">
        <ele>98.19</ele>
        <time>2017-10-06T09:08:25Z</time>
      </trkpt>
      <trkpt lat="48.39027" lon="2.71245">
        <ele>98.19</ele>
        <time>2017-10-06T09:08:26Z</time>
      </trkpt>
      <trkpt lat="48.39029" lon="2.71239">
        <ele>97.71</ele>
        <time>2017-10-06T09:08:31Z</time>
      </trkpt>
      <trkpt lat="48.39031" lon="2.71237">
        <ele>97.71</ele>
        <time>2017-10-06T09:08:35Z</time>
      </trkpt>
      <trkpt lat="48.39032" lon="2.71235">
        <ele>97.71</ele>
        <time>2017-10-06T09:08:36Z</time>
      </trkpt>
      <trkpt lat="48.39033" lon="2.71233">
        <ele>97.23</ele>
        <time>2017-10-06T09:08:37Z</time>
      </trkpt>
      <trkpt lat="48.39034" lon="2.71231">
        <ele>97.23</ele>
        <time>2017-10-06T09:08:38Z</time>
      </trkpt>
      <trkpt lat="48.39036" lon="2.71225">
        <ele>97.23</ele>
        <time>2017-10-06T09:08:44Z</time>
      </trkpt>
      <trkpt lat="48.39036" lon="2.71224">
        <ele>97.23</ele>
        <time>2017-10-06T09:08:45Z</time>
      </trkpt>
      <trkpt lat="48.39037" lon="2.71217">
        <ele>96.75</ele>
        <time>2017-10-06T09:08:49Z</time>
      </trkpt>
      <trkpt lat="48.39039" lon="2.71202">
        <ele>96.75</ele>
        <time>2017-10-06T09:09:01Z</time>
      </trkpt>
      <trkpt lat="48.3904" lon="2.71191">
        <ele>96.75</ele>
        <time>2017-10-06T09:09:21Z</time>
      </trkpt>
      <trkpt lat="48.3904" lon="2.71183">
        <ele>96.75</ele>
        <time>2017-10-06T09:09:30Z</time>
      </trkpt>
      <trkpt lat="48.39043" lon="2.71173">
        <ele>96.27</ele>
        <time>2017-10-06T09:09:37Z</time>
      </trkpt>
      <trkpt lat="48.39043" lon="2.71171">
        <ele>95.79</ele>
        <time>2017-10-06T09:09:38Z</time>
      </trkpt>
      <trkpt lat="48.39045" lon="2.71163">
        <ele>95.79</ele>
        <time>2017-10-06T09:09:44Z</time>
      </trkpt>
      <trkpt lat="48.39044" lon="2.71156">
        <ele>94.83</ele>
        <time>2017-10-06T09:09:57Z</time>
      </trkpt>
      <trkpt lat="48.39044" lon="2.71148">
        <ele>94.35</ele>
        <time>2017-10-06T09:10:06Z</time>
      </trkpt>
      <trkpt lat="48.39044" lon="2.71143">
        <ele>93.39</ele>
        <time>2017-10-06T09:10:10Z</time>
      </trkpt>
      <trkpt lat="48.39047" lon="2.71123">
        <ele>91.46</ele>
        <time>2017-10-06T09:10:22Z</time>
      </trkpt>
      <trkpt lat="48.39048" lon="2.7112">
        <ele>91.46</ele>
        <time>2017-10-06T09:10:23Z</time>
      </trkpt>
      <trkpt lat="48.39049" lon="2.71118">
        <ele>91.94</ele>
        <time>2017-10-06T09:10:24Z</time>
      </trkpt>
      <trkpt lat="48.39051" lon="2.71099">
        <ele>90.5</ele>
        <time>2017-10-06T09:10:38Z</time>
      </trkpt>
      <trkpt lat="48.39051" lon="2.71096">
        <ele>90.02</ele>
        <time>2017-10-06T09:10:40Z</time>
      </trkpt>
      <trkpt lat="48.39052" lon="2.71093">
        <ele>90.02</ele>
        <time>2017-10-06T09:10:41Z</time>
      </trkpt>
      <trkpt lat="48.39056" lon="2.71084">
        <ele>90.5</ele>
        <time>2017-10-06T09:10:48Z</time>
      </trkpt>
      <trkpt lat="48.39058" lon="2.71079">
        <ele>89.54</ele>
        <time>2017-10-06T09:10:51Z</time>
      </trkpt>
      <trkpt lat="48.39061" lon="2.71074">
        <ele>89.06</ele>
        <time>2017-10-06T09:10:56Z</time>
      </trkpt>
      <trkpt lat="48.39061" lon="2.71072">
        <ele>89.54</ele>
        <time>2017-10-06T09:10:57Z</time>
      </trkpt>
      <trkpt lat="48.39069" lon="2.71062">
        <ele>88.58</ele>
        <time>2017-10-06T09:11:10Z</time>
      </trkpt>
      <trkpt lat="48.39072" lon="2.7106">
        <ele>88.58</ele>
        <time>2017-10-06T09:11:13Z</time>
      </trkpt>
      <trkpt lat="48.39084" lon="2.71053">
        <ele>88.58</ele>
        <time>2017-10-06T09:11:26Z</time>
      </trkpt>
      <trkpt lat="48.39101" lon="2.7104">
        <ele>89.06</ele>
        <time>2017-10-06T09:11:40Z</time>
      </trkpt>
      <trkpt lat="48.39115" lon="2.7103">
        <ele>88.58</ele>
        <time>2017-10-06T09:11:57Z</time>
      </trkpt>
      <trkpt lat="48.39132" lon="2.71026">
        <ele>87.62</ele>
        <time>2017-10-06T09:12:13Z</time>
      </trkpt>
      <trkpt lat="48.39142" lon="2.71023">
        <ele>87.14</ele>
        <time>2017-10-06T09:12:22Z</time>
      </trkpt>
      <trkpt lat="48.39148" lon="2.7102">
        <ele>87.62</ele>
        <time>2017-10-06T09:12:27Z</time>
      </trkpt>
      <trkpt lat="48.39171" lon="2.71012">
        <ele>87.14</ele>
        <time>2017-10-06T09:12:42Z</time>
      </trkpt>
      <trkpt lat="48.39179" lon="2.71004">
        <ele>87.14</ele>
        <time>2017-10-06T09:12:51Z</time>
      </trkpt>
      <trkpt lat="48.3918" lon="2.71001">
        <ele>87.62</ele>
        <time>2017-10-06T09:13:01Z</time>
      </trkpt>
      <trkpt lat="48.39178" lon="2.70991">
        <ele>87.14</ele>
        <time>2017-10-06T09:13:12Z</time>
      </trkpt>
      <trkpt lat="48.39178" lon="2.7099">
        <ele>87.14</ele>
        <time>2017-10-06T09:13:13Z</time>
      </trkpt>
      <trkpt lat="48.39178" lon="2.70989">
        <ele>86.66</ele>
        <time>2017-10-06T09:13:14Z</time>
      </trkpt>
      <trkpt lat="48.39178" lon="2.70983">
        <ele>86.66</ele>
        <time>2017-10-06T09:13:18Z</time>
      </trkpt>
      <trkpt lat="48.39179" lon="2.70975">
        <ele>86.66</ele>
        <time>2017-10-06T09:13:27Z</time>
      </trkpt>
      <trkpt lat="48.39179" lon="2.70973">
        <ele>86.66</ele>
        <time>2017-10-06T09:13:28Z</time>
      </trkpt>
      <trkpt lat="48.3918" lon="2.70955">
        <ele>86.18</ele>
        <time>2017-10-06T09:13:39Z</time>
      </trkpt>
      <trkpt lat="48.39179" lon="2.7093">
        <ele>86.66</ele>
        <time>2017-10-06T09:13:53Z</time>
      </trkpt>
      <trkpt lat="48.39179" lon="2.70929">
        <ele>86.66</ele>
        <time>2017-10-06T09:13:54Z</time>
      </trkpt>
      <trkpt lat="48.39179" lon="2.70926">
        <ele>86.18</ele>
        <time>2017-10-06T09:13:55Z</time>
      </trkpt>
      <trkpt lat="48.39179" lon="2.70924">
        <ele>86.18</ele>
        <time>2017-10-06T09:13:56Z</time>
      </trkpt>
      <trkpt lat="48.39179" lon="2.70921">
        <ele>86.18</ele>
        <time>2017-10-06T09:13:57Z</time>
      </trkpt>
      <trkpt lat="48.39179" lon="2.70918">
        <ele>85.69</ele>
        <time>2017-10-06T09:13:58Z</time>
      </trkpt>
      <trkpt lat="48.3918" lon="2.70916">
        <ele>86.18</ele>
        <time>2017-10-06T09:13:59Z</time>
      </trkpt>
      <trkpt lat="48.39179" lon="2.70911">
        <ele>86.66</ele>
        <time>2017-10-06T09:14:04Z</time>
      </trkpt>
      <trkpt lat="48.39179" lon="2.70889">
        <ele>86.18</ele>
        <time>2017-10-06T09:14:16Z</time>
      </trkpt>
      <trkpt lat="48.3918" lon="2.70875">
        <ele>85.69</ele>
        <time>2017-10-06T09:14:23Z</time>
      </trkpt>
      <trkpt lat="48.3918" lon="2.70873">
        <ele>85.69</ele>
        <time>2017-10-06T09:14:24Z</time>
      </trkpt>
      <trkpt lat="48.3918" lon="2.7087">
        <ele>86.18</ele>
        <time>2017-10-06T09:14:25Z</time>
      </trkpt>
      <trkpt lat="48.3918" lon="2.70868">
        <ele>85.69</ele>
        <time>2017-10-06T09:14:26Z</time>
      </trkpt>
      <trkpt lat="48.39181" lon="2.70866">
        <ele>85.69</ele>
        <time>2017-10-06T09:14:27Z</time>
      </trkpt>
      <trkpt lat="48.39185" lon="2.70847">
        <ele>85.69</ele>
        <time>2017-10-06T09:14:38Z</time>
      </trkpt>
      <trkpt lat="48.39185" lon="2.70845">
        <ele>85.69</ele>
        <time>2017-10-06T09:14:39Z</time>
      </trkpt>
      <trkpt lat="48.39185" lon="2.70843">
        <ele>85.69</ele>
        <time>2017-10-06T09:14:40Z</time>
      </trkpt>
      <trkpt lat="48.39185" lon="2.70841">
        <ele>85.21</ele>
        <time>2017-10-06T09:14:41Z</time>
      </trkpt>
      <trkpt lat="48.39186" lon="2.70838">
        <ele>85.69</ele>
        <time>2017-10-06T09:14:42Z</time>
      </trkpt>
      <trkpt lat="48.39186" lon="2.70837">
        <ele>85.69</ele>
        <time>2017-10-06T09:14:43Z</time>
      </trkpt>
      <trkpt lat="48.39186" lon="2.70822">
        <ele>85.69</ele>
        <time>2017-10-06T09:14:54Z</time>
      </trkpt>
      <trkpt lat="48.39187" lon="2.7082">
        <ele>85.21</ele>
        <time>2017-10-06T09:14:55Z</time>
      </trkpt>
      <trkpt lat="48.39186" lon="2.7081">
        <ele>85.69</ele>
        <time>2017-10-06T09:15:05Z</time>
      </trkpt>
      <trkpt lat="48.39186" lon="2.70807">
        <ele>85.21</ele>
        <time>2017-10-06T09:15:12Z</time>
      </trkpt>
      <trkpt lat="48.39192" lon="2.70794">
        <ele>85.69</ele>
        <time>2017-10-06T09:15:23Z</time>
      </trkpt>
      <trkpt lat="48.39196" lon="2.70777">
        <ele>85.69</ele>
        <time>2017-10-06T09:15:39Z</time>
      </trkpt>
      <trkpt lat="48.39194" lon="2.70776">
        <ele>85.69</ele>
        <time>2017-10-06T09:15:52Z</time>
      </trkpt>
      <trkpt lat="48.39197" lon="2.70767">
        <ele>85.21</ele>
        <time>2017-10-06T09:16:06Z</time>
      </trkpt>
      <trkpt lat="48.39198" lon="2.70765">
        <ele>85.21</ele>
        <time>2017-10-06T09:16:07Z</time>
      </trkpt>
      <trkpt lat="48.39199" lon="2.70764">
        <ele>85.21</ele>
        <time>2017-10-06T09:16:08Z</time>
      </trkpt>
      <trkpt lat="48.392" lon="2.70762">
        <ele>85.21</ele>
        <time>2017-10-06T09:16:09Z</time>
      </trkpt>
      <trkpt lat="48.39201" lon="2.70761">
        <ele>85.21</ele>
        <time>2017-10-06T09:16:10Z</time>
      </trkpt>
      <trkpt lat="48.39208" lon="2.70748">
        <ele>85.21</ele>
        <time>2017-10-06T09:16:21Z</time>
      </trkpt>
      <trkpt lat="48.39208" lon="2.70746">
        <ele>84.73</ele>
        <time>2017-10-06T09:16:23Z</time>
      </trkpt>
      <trkpt lat="48.39209" lon="2.70744">
        <ele>85.21</ele>
        <time>2017-10-06T09:16:24Z</time>
      </trkpt>
      <trkpt lat="48.3921" lon="2.70742">
        <ele>84.73</ele>
        <time>2017-10-06T09:16:25Z</time>
      </trkpt>
      <trkpt lat="48.39218" lon="2.70727">
        <ele>84.73</ele>
        <time>2017-10-06T09:16:37Z</time>
      </trkpt>
      <trkpt lat="48.39222" lon="2.70719">
        <ele>85.21</ele>
        <time>2017-10-06T09:16:44Z</time>
      </trkpt>
      <trkpt lat="48.39223" lon="2.70717">
        <ele>84.73</ele>
        <time>2017-10-06T09:16:45Z</time>
      </trkpt>
      <trkpt lat="48.39224" lon="2.70715">
        <ele>84.73</ele>
        <time>2017-10-06T09:16:46Z</time>
      </trkpt>
      <trkpt lat="48.39231" lon="2.70698">
        <ele>85.21</ele>
        <time>2017-10-06T09:16:58Z</time>
      </trkpt>
      <trkpt lat="48.39231" lon="2.70696">
        <ele>85.21</ele>
        <time>2017-10-06T09:16:59Z</time>
      </trkpt>
      <trkpt lat="48.39235" lon="2.70686">
        <ele>85.21</ele>
        <time>2017-10-06T09:17:06Z</time>
      </trkpt>
      <trkpt lat="48.39241" lon="2.70668">
        <ele>85.21</ele>
        <time>2017-10-06T09:17:19Z</time>
      </trkpt>
      <trkpt lat="48.39243" lon="2.70663">
        <ele>85.69</ele>
        <time>2017-10-06T09:17:24Z</time>
      </trkpt>
      <trkpt lat="48.39244" lon="2.7066">
        <ele>85.69</ele>
        <time>2017-10-06T09:17:25Z</time>
      </trkpt>
      <trkpt lat="48.39245" lon="2.70658">
        <ele>85.69</ele>
        <time>2017-10-06T09:17:26Z</time>
      </trkpt>
      <trkpt lat="48.39251" lon="2.70636">
        <ele>86.18</ele>
        <time>2017-10-06T09:17:38Z</time>
      </trkpt>
      <trkpt lat="48.39252" lon="2.70622">
        <ele>85.69</ele>
        <time>2017-10-06T09:17:47Z</time>
      </trkpt>
      <trkpt lat="48.3926" lon="2.70605">
        <ele>85.69</ele>
        <time>2017-10-06T09:17:59Z</time>
      </trkpt>
      <trkpt lat="48.39263" lon="2.70597">
        <ele>86.18</ele>
        <time>2017-10-06T09:18:05Z</time>
      </trkpt>
      <trkpt lat="48.39265" lon="2.70593">
        <ele>86.18</ele>
        <time>2017-10-06T09:18:07Z</time>
      </trkpt>
      <trkpt lat="48.39266" lon="2.70591">
        <ele>85.69</ele>
        <time>2017-10-06T09:18:08Z</time>
      </trkpt>
      <trkpt lat="48.39274" lon="2.70573">
        <ele>86.66</ele>
        <time>2017-10-06T09:18:20Z</time>
      </trkpt>
      <trkpt lat="48.39282" lon="2.70553">
        <ele>86.18</ele>
        <time>2017-10-06T09:18:33Z</time>
      </trkpt>
      <trkpt lat="48.39283" lon="2.70552">
        <ele>86.18</ele>
        <time>2017-10-06T09:18:34Z</time>
      </trkpt>
      <trkpt lat="48.39283" lon="2.7055">
        <ele>86.66</ele>
        <time>2017-10-06T09:18:35Z</time>
      </trkpt>
      <trkpt lat="48.39291" lon="2.70533">
        <ele>87.14</ele>
        <time>2017-10-06T09:18:46Z</time>
      </trkpt>
      <trkpt lat="48.39299" lon="2.70517">
        <ele>86.18</ele>
        <time>2017-10-06T09:18:56Z</time>
      </trkpt>
      <trkpt lat="48.39307" lon="2.70498">
        <ele>86.18</ele>
        <time>2017-10-06T09:19:08Z</time>
      </trkpt>
      <trkpt lat="48.3931" lon="2.70481">
        <ele>86.18</ele>
        <time>2017-10-06T09:19:20Z</time>
      </trkpt>
      <trkpt lat="48.39316" lon="2.70462">
        <ele>85.69</ele>
        <time>2017-10-06T09:19:33Z</time>
      </trkpt>
      <trkpt lat="48.39316" lon="2.70461">
        <ele>85.21</ele>
        <time>2017-10-06T09:19:34Z</time>
      </trkpt>
      <trkpt lat="48.39317" lon="2.70459">
        <ele>85.69</ele>
        <time>2017-10-06T09:19:35Z</time>
      </trkpt>
      <trkpt lat="48.39318" lon="2.70456">
        <ele>85.69</ele>
        <time>2017-10-06T09:19:36Z</time>
      </trkpt>
      <trkpt lat="48.39322" lon="2.70446">
        <ele>85.21</ele>
        <time>2017-10-06T09:19:43Z</time>
      </trkpt>
      <trkpt lat="48.39322" lon="2.70444">
        <ele>85.69</ele>
        <time>2017-10-06T09:19:44Z</time>
      </trkpt>
      <trkpt lat="48.39324" lon="2.70434">
        <ele>85.21</ele>
        <time>2017-10-06T09:19:50Z</time>
      </trkpt>
      <trkpt lat="48.39325" lon="2.7043">
        <ele>85.69</ele>
        <time>2017-10-06T09:19:52Z</time>
      </trkpt>
      <trkpt lat="48.39326" lon="2.70428">
        <ele>85.21</ele>
        <time>2017-10-06T09:19:53Z</time>
      </trkpt>
      <trkpt lat="48.39332" lon="2.70416">
        <ele>85.69</ele>
        <time>2017-10-06T09:20:01Z</time>
      </trkpt>
      <trkpt lat="48.39332" lon="2.70414">
        <ele>85.21</ele>
        <time>2017-10-06T09:20:02Z</time>
      </trkpt>
      <trkpt lat="48.39333" lon="2.70412">
        <ele>85.21</ele>
        <time>2017-10-06T09:20:03Z</time>
      </trkpt>
      <trkpt lat="48.39334" lon="2.70409">
        <ele>85.21</ele>
        <time>2017-10-06T09:20:04Z</time>
      </trkpt>
      <trkpt lat="48.39338" lon="2.70395">
        <ele>84.73</ele>
        <time>2017-10-06T09:20:14Z</time>
      </trkpt>
      <trkpt lat="48.39339" lon="2.70393">
        <ele>84.73</ele>
        <time>2017-10-06T09:20:15Z</time>
      </trkpt>
      <trkpt lat="48.39343" lon="2.70381">
        <ele>84.73</ele>
        <time>2017-10-06T09:20:23Z</time>
      </trkpt>
      <trkpt lat="48.39344" lon="2.70379">
        <ele>84.25</ele>
        <time>2017-10-06T09:20:24Z</time>
      </trkpt>
      <trkpt lat="48.39345" lon="2.70377">
        <ele>84.25</ele>
        <time>2017-10-06T09:20:25Z</time>
      </trkpt>
      <trkpt lat="48.39346" lon="2.70375">
        <ele>84.25</ele>
        <time>2017-10-06T09:20:26Z</time>
      </trkpt>
      <trkpt lat="48.39353" lon="2.70362">
        <ele>84.25</ele>
        <time>2017-10-06T09:20:37Z</time>
      </trkpt>
      <trkpt lat="48.39355" lon="2.70354">
        <ele>84.25</ele>
        <time>2017-10-06T09:20:42Z</time>
      </trkpt>
      <trkpt lat="48.39356" lon="2.70352">
        <ele>83.77</ele>
        <time>2017-10-06T09:20:43Z</time>
      </trkpt>
      <trkpt lat="48.39357" lon="2.7035">
        <ele>83.77</ele>
        <time>2017-10-06T09:20:44Z</time>
      </trkpt>
      <trkpt lat="48.39358" lon="2.70348">
        <ele>83.77</ele>
        <time>2017-10-06T09:20:45Z</time>
      </trkpt>
      <trkpt lat="48.39359" lon="2.70343">
        <ele>83.77</ele>
        <time>2017-10-06T09:20:47Z</time>
      </trkpt>
      <trkpt lat="48.39359" lon="2.70337">
        <ele>83.77</ele>
        <time>2017-10-06T09:20:51Z</time>
      </trkpt>
      <trkpt lat="48.39358" lon="2.70334">
        <ele>82.81</ele>
        <time>2017-10-06T09:20:52Z</time>
      </trkpt>
      <trkpt lat="48.39357" lon="2.70333">
        <ele>82.81</ele>
        <time>2017-10-06T09:20:53Z</time>
      </trkpt>
      <trkpt lat="48.39355" lon="2.70332">
        <ele>83.29</ele>
        <time>2017-10-06T09:20:54Z</time>
      </trkpt>
      <trkpt lat="48.39352" lon="2.70329">
        <ele>83.29</ele>
        <time>2017-10-06T09:20:59Z</time>
      </trkpt>
      <trkpt lat="48.39351" lon="2.70329">
        <ele>83.29</ele>
        <time>2017-10-06T09:21:00Z</time>
      </trkpt>
      <trkpt lat="48.39346" lon="2.70327">
        <ele>83.77</ele>
        <time>2017-10-06T09:21:05Z</time>
      </trkpt>
      <trkpt lat="48.39345" lon="2.70327">
        <ele>83.29</ele>
        <time>2017-10-06T09:21:06Z</time>
      </trkpt>
      <trkpt lat="48.39343" lon="2.70327">
        <ele>83.29</ele>
        <time>2017-10-06T09:21:07Z</time>
      </trkpt>
      <trkpt lat="48.39336" lon="2.70329">
        <ele>83.29</ele>
        <time>2017-10-06T09:21:19Z</time>
      </trkpt>
      <trkpt lat="48.39329" lon="2.70332">
        <ele>83.29</ele>
        <time>2017-10-06T09:21:28Z</time>
      </trkpt>
      <trkpt lat="48.39328" lon="2.70333">
        <ele>83.29</ele>
        <time>2017-10-06T09:21:29Z</time>
      </trkpt>
      <trkpt lat="48.39326" lon="2.70334">
        <ele>83.29</ele>
        <time>2017-10-06T09:21:30Z</time>
      </trkpt>
      <trkpt lat="48.39322" lon="2.70334">
        <ele>83.29</ele>
        <time>2017-10-06T09:21:34Z</time>
      </trkpt>
      <trkpt lat="48.39321" lon="2.70335">
        <ele>83.29</ele>
        <time>2017-10-06T09:21:35Z</time>
      </trkpt>
      <trkpt lat="48.39313" lon="2.70334">
        <ele>83.29</ele>
        <time>2017-10-06T09:21:46Z</time>
      </trkpt>
      <trkpt lat="48.39302" lon="2.70337">
        <ele>83.29</ele>
        <time>2017-10-06T09:22:00Z</time>
      </trkpt>
      <trkpt lat="48.39297" lon="2.70339">
        <ele>83.77</ele>
        <time>2017-10-06T09:22:06Z</time>
      </trkpt>
      <trkpt lat="48.39285" lon="2.70341">
        <ele>83.77</ele>
        <time>2017-10-06T09:22:17Z</time>
      </trkpt>
      <trkpt lat="48.39276" lon="2.70347">
        <ele>84.25</ele>
        <time>2017-10-06T09:22:28Z</time>
      </trkpt>
      <trkpt lat="48.39274" lon="2.70347">
        <ele>84.25</ele>
        <time>2017-10-06T09:22:29Z</time>
      </trkpt>
      <trkpt lat="48.39272" lon="2.70345">
        <ele>84.25</ele>
        <time>2017-10-06T09:22:32Z</time>
      </trkpt>
      <trkpt lat="48.3927" lon="2.70345">
        <ele>84.73</ele>
        <time>2017-10-06T09:22:33Z</time>
      </trkpt>
      <trkpt lat="48.39263" lon="2.70345">
        <ele>83.77</ele>
        <time>2017-10-06T09:22:40Z</time>
      </trkpt>
      <trkpt lat="48.39257" lon="2.70348">
        <ele>84.73</ele>
        <time>2017-10-06T09:22:47Z</time>
      </trkpt>
      <trkpt lat="48.39255" lon="2.70348">
        <ele>84.73</ele>
        <time>2017-10-06T09:22:49Z</time>
      </trkpt>
      <trkpt lat="48.39253" lon="2.70349">
        <ele>84.25</ele>
        <time>2017-10-06T09:22:50Z</time>
      </trkpt>
      <trkpt lat="48.39248" lon="2.70352">
        <ele>84.25</ele>
        <time>2017-10-06T09:22:55Z</time>
      </trkpt>
      <trkpt lat="48.39246" lon="2.70352">
        <ele>84.25</ele>
        <time>2017-10-06T09:22:56Z</time>
      </trkpt>
      <trkpt lat="48.39234" lon="2.70355">
        <ele>84.25</ele>
        <time>2017-10-06T09:23:07Z</time>
      </trkpt>
      <trkpt lat="48.39221" lon="2.70356">
        <ele>84.25</ele>
        <time>2017-10-06T09:23:18Z</time>
      </trkpt>
      <trkpt lat="48.39206" lon="2.70365">
        <ele>85.21</ele>
        <time>2017-10-06T09:23:31Z</time>
      </trkpt>
      <trkpt lat="48.39199" lon="2.70366">
        <ele>84.73</ele>
        <time>2017-10-06T09:23:44Z</time>
      </trkpt>
      <trkpt lat="48.39197" lon="2.70369">
        <ele>84.73</ele>
        <time>2017-10-06T09:24:03Z</time>
      </trkpt>
      <trkpt lat="48.39199" lon="2.7037">
        <ele>84.73</ele>
        <time>2017-10-06T09:24:25Z</time>
      </trkpt>
    </trkseg>
  </trk>
</gpx>